BAW12J EGKK-KTPA
Flight info
| Callsign | BAW12J |
|---|---|
| Flight time | 9h 40m |
| Altitude | 36000 |
| Route | DCT NOVMA L620 SAM N19 ADKIK DCT MOPAT DCT ERTER DCT LILNO DCT LIMRI/M083F370 NATG NICSO/N0470F380 N258B TUSKY DCT EURRO/N0479F400 DCT NELIE DCT BIZEX Q75 TEUFL DCT BAAMF DADES2 |
| Aircraft | B772/H-SDE1E3FGHIJ3J5J6M1M2P2RWXYZ/LB1D1 |
Departure
| Time | 2026-05-07 13:27 |
|---|---|
| Airport | London Gatwick Airport (EGKK) |
Arrival
| Time | 2026-05-07 23:07 |
|---|---|
| Airport | Tampa International Airport (KTPA) |
| Time | Latitude | Longitude | Altitude | Speed | Heading |
|---|---|---|---|---|---|
| 2026-05-07 12:49 | 51.46975 | -0.47502 | 96 ft | 0 kts | 270° |
| 2026-05-07 12:50 | 51.15865 | -0.16930 | 209 ft | 0 kts | 126° |
| 2026-05-07 13:10 | 51.15867 | -0.16933 | 209 ft | 1 kts | 127° |
| 2026-05-07 13:10 | 51.15878 | -0.16956 | 209 ft | 3 kts | 129° |
| 2026-05-07 13:11 | 51.15887 | -0.16975 | 209 ft | 2 kts | 129° |
| 2026-05-07 13:11 | 51.15900 | -0.16997 | 209 ft | 3 kts | 146° |
| 2026-05-07 13:11 | 51.15914 | -0.17009 | 209 ft | 3 kts | 178° |
| 2026-05-07 13:11 | 51.15927 | -0.17006 | 209 ft | 3 kts | 216° |
| 2026-05-07 13:12 | 51.15941 | -0.16986 | 209 ft | 3 kts | 230° |
| 2026-05-07 13:12 | 51.15953 | -0.16963 | 209 ft | 2 kts | 227° |
| 2026-05-07 13:12 | 51.15958 | -0.16955 | 209 ft | 0 kts | 226° |
| 2026-05-07 13:14 | 51.15952 | -0.16965 | 209 ft | 2 kts | 228° |
| 2026-05-07 13:15 | 51.15943 | -0.16981 | 209 ft | 3 kts | 229° |
| 2026-05-07 13:15 | 51.15899 | -0.17042 | 209 ft | 13 kts | 211° |
| 2026-05-07 13:15 | 51.15826 | -0.17098 | 209 ft | 11 kts | 222° |
| 2026-05-07 13:15 | 51.15793 | -0.17205 | 209 ft | 11 kts | 256° |
| 2026-05-07 13:16 | 51.15776 | -0.17323 | 209 ft | 12 kts | 257° |
| 2026-05-07 13:16 | 51.15754 | -0.17478 | 209 ft | 15 kts | 258° |
| 2026-05-07 13:16 | 51.15733 | -0.17633 | 209 ft | 14 kts | 258° |
| 2026-05-07 13:16 | 51.15714 | -0.17777 | 209 ft | 13 kts | 257° |
| 2026-05-07 13:17 | 51.15695 | -0.17915 | 209 ft | 12 kts | 258° |
| 2026-05-07 13:17 | 51.15678 | -0.18048 | 209 ft | 12 kts | 258° |
| 2026-05-07 13:17 | 51.15659 | -0.18175 | 209 ft | 12 kts | 256° |
| 2026-05-07 13:17 | 51.15642 | -0.18297 | 209 ft | 11 kts | 258° |
| 2026-05-07 13:18 | 51.15587 | -0.18353 | 209 ft | 11 kts | 170° |
| 2026-05-07 13:18 | 51.15517 | -0.18328 | 209 ft | 10 kts | 167° |
| 2026-05-07 13:18 | 51.15444 | -0.18304 | 209 ft | 13 kts | 168° |
| 2026-05-07 13:18 | 51.15341 | -0.18267 | 209 ft | 16 kts | 167° |
| 2026-05-07 13:19 | 51.15236 | -0.18230 | 209 ft | 15 kts | 168° |
| 2026-05-07 13:19 | 51.15137 | -0.18203 | 209 ft | 14 kts | 188° |
| 2026-05-07 13:19 | 51.15085 | -0.18318 | 209 ft | 13 kts | 256° |
| 2026-05-07 13:19 | 51.15068 | -0.18457 | 209 ft | 13 kts | 258° |
| 2026-05-07 13:20 | 51.15051 | -0.18591 | 209 ft | 12 kts | 257° |
| 2026-05-07 13:20 | 51.15034 | -0.18720 | 209 ft | 12 kts | 258° |
| 2026-05-07 13:20 | 51.15024 | -0.18794 | 209 ft | 11 kts | 258° |
| 2026-05-07 13:20 | 51.15009 | -0.18914 | 209 ft | 11 kts | 258° |
| 2026-05-07 13:21 | 51.14988 | -0.19046 | 209 ft | 16 kts | 255° |
| 2026-05-07 13:21 | 51.14948 | -0.19282 | 209 ft | 28 kts | 254° |
| 2026-05-07 13:21 | 51.14900 | -0.19625 | 209 ft | 31 kts | 261° |
| 2026-05-07 13:21 | 51.14872 | -0.19881 | 209 ft | 22 kts | 259° |
| 2026-05-07 13:22 | 51.14843 | -0.20115 | 209 ft | 21 kts | 258° |
| 2026-05-07 13:22 | 51.14811 | -0.20335 | 209 ft | 20 kts | 255° |
| 2026-05-07 13:22 | 51.14776 | -0.20546 | 209 ft | 19 kts | 256° |
| 2026-05-07 13:22 | 51.14753 | -0.20749 | 209 ft | 18 kts | 260° |
| 2026-05-07 13:23 | 51.14726 | -0.20940 | 209 ft | 17 kts | 255° |
| 2026-05-07 13:23 | 51.14701 | -0.21114 | 209 ft | 16 kts | 258° |
| 2026-05-07 13:23 | 51.14686 | -0.21236 | 209 ft | 8 kts | 259° |
| 2026-05-07 13:23 | 51.14663 | -0.21315 | 209 ft | 8 kts | 216° |
| 2026-05-07 13:24 | 51.14619 | -0.21328 | 209 ft | 5 kts | 166° |
| 2026-05-07 13:24 | 51.14614 | -0.21327 | 209 ft | 0 kts | 165° |
| 2026-05-07 13:25 | 51.14612 | -0.21326 | 209 ft | 3 kts | 165° |
| 2026-05-07 13:25 | 51.14553 | -0.21288 | 209 ft | 16 kts | 147° |
| 2026-05-07 13:26 | 51.14508 | -0.21167 | 209 ft | 11 kts | 78° |
| 2026-05-07 13:26 | 51.14566 | -0.20770 | 210 ft | 69 kts | 76° |
| 2026-05-07 13:26 | 51.14719 | -0.19641 | 210 ft | 140 kts | 77° |
| 2026-05-07 13:26 | 51.14980 | -0.17827 | 473 ft | 181 kts | 77° |
| 2026-05-07 13:27 | 51.15295 | -0.15870 | 1335 ft | 185 kts | 75° |
| 2026-05-07 13:27 | 51.15662 | -0.13850 | 2090 ft | 194 kts | 73° |
| 2026-05-07 13:27 | 51.16091 | -0.11751 | 2540 ft | 206 kts | 73° |
| 2026-05-07 13:27 | 51.16515 | -0.09503 | 2775 ft | 217 kts | 75° |
| 2026-05-07 13:28 | 51.17001 | -0.07179 | 3027 ft | 225 kts | 65° |
| 2026-05-07 13:28 | 51.18082 | -0.05379 | 2891 ft | 229 kts | 33° |
| 2026-05-07 13:28 | 51.19621 | -0.04747 | 2965 ft | 232 kts | 6° |
| 2026-05-07 13:28 | 51.21175 | -0.05359 | 2968 ft | 234 kts | 332° |
| 2026-05-07 13:29 | 51.22267 | -0.07250 | 2982 ft | 236 kts | 298° |
| 2026-05-07 13:29 | 51.22697 | -0.09774 | 3101 ft | 244 kts | 278° |
| 2026-05-07 13:29 | 51.22735 | -0.12565 | 3014 ft | 261 kts | 266° |
| 2026-05-07 13:29 | 51.22488 | -0.15458 | 2999 ft | 264 kts | 257° |
| 2026-05-07 13:30 | 51.22059 | -0.18281 | 3100 ft | 262 kts | 253° |
| 2026-05-07 13:30 | 51.21594 | -0.21111 | 2994 ft | 263 kts | 254° |
| 2026-05-07 13:30 | 51.21179 | -0.23921 | 3004 ft | 258 kts | 255° |
| 2026-05-07 13:30 | 51.20818 | -0.26735 | 3000 ft | 260 kts | 257° |
| 2026-05-07 13:31 | 51.20484 | -0.29583 | 3001 ft | 262 kts | 257° |
| 2026-05-07 13:31 | 51.20155 | -0.32444 | 3000 ft | 263 kts | 257° |
| 2026-05-07 13:31 | 51.19826 | -0.35305 | 3023 ft | 263 kts | 257° |
| 2026-05-07 13:31 | 51.19465 | -0.38183 | 3521 ft | 264 kts | 256° |
| 2026-05-07 13:32 | 51.19081 | -0.41055 | 3926 ft | 265 kts | 256° |
| 2026-05-07 13:32 | 51.18697 | -0.43939 | 4013 ft | 265 kts | 256° |
| 2026-05-07 13:32 | 51.18443 | -0.45847 | 4009 ft | 266 kts | 256° |
| 2026-05-07 13:32 | 51.18063 | -0.48725 | 3990 ft | 265 kts | 256° |
| 2026-05-07 13:33 | 51.17517 | -0.52517 | 3986 ft | 264 kts | 252° |
| 2026-05-07 13:33 | 51.16943 | -0.55296 | 3985 ft | 264 kts | 248° |
| 2026-05-07 13:33 | 51.16284 | -0.58026 | 3982 ft | 264 kts | 246° |
| 2026-05-07 13:33 | 51.15573 | -0.60715 | 3981 ft | 263 kts | 245° |
| 2026-05-07 13:34 | 51.15085 | -0.62482 | 3981 ft | 263 kts | 244° |
| 2026-05-07 13:34 | 51.13603 | -0.67816 | 3980 ft | 263 kts | 244° |
| 2026-05-07 13:34 | 51.12862 | -0.70513 | 4321 ft | 267 kts | 244° |
| 2026-05-07 13:35 | 51.12119 | -0.73227 | 5017 ft | 266 kts | 244° |
| 2026-05-07 13:35 | 51.11384 | -0.75928 | 5623 ft | 267 kts | 244° |
| 2026-05-07 13:35 | 51.10645 | -0.78648 | 6189 ft | 268 kts | 244° |
| 2026-05-07 13:35 | 51.09901 | -0.81384 | 6748 ft | 270 kts | 245° |
| 2026-05-07 13:36 | 51.09153 | -0.84141 | 7302 ft | 272 kts | 245° |
| 2026-05-07 13:36 | 51.08411 | -0.86883 | 7841 ft | 274 kts | 245° |
| 2026-05-07 13:36 | 51.07739 | -0.89470 | 8338 ft | 275 kts | 246° |
| 2026-05-07 13:36 | 51.07014 | -0.92304 | 8865 ft | 277 kts | 246° |
| 2026-05-07 13:37 | 51.06271 | -0.95140 | 9371 ft | 279 kts | 246° |
| 2026-05-07 13:37 | 51.05510 | -0.97993 | 9870 ft | 281 kts | 246° |
| 2026-05-07 13:37 | 51.04736 | -1.00859 | 10383 ft | 283 kts | 245° |
| 2026-05-07 13:37 | 51.03951 | -1.03747 | 10869 ft | 286 kts | 245° |
| 2026-05-07 13:38 | 51.03139 | -1.06719 | 11089 ft | 302 kts | 245° |
| 2026-05-07 13:38 | 51.02279 | -1.09857 | 11280 ft | 319 kts | 245° |
| 2026-05-07 13:38 | 51.01367 | -1.13181 | 11498 ft | 336 kts | 245° |
| 2026-05-07 13:38 | 51.00413 | -1.16651 | 11862 ft | 349 kts | 245° |
| 2026-05-07 13:39 | 50.99429 | -1.20229 | 12419 ft | 357 kts | 245° |
| 2026-05-07 13:39 | 50.98425 | -1.23875 | 13104 ft | 362 kts | 245° |
| 2026-05-07 13:39 | 50.97414 | -1.27546 | 13830 ft | 366 kts | 245° |
| 2026-05-07 13:39 | 50.96416 | -1.31289 | 14494 ft | 371 kts | 248° |
| 2026-05-07 13:40 | 50.95607 | -1.35194 | 15164 ft | 374 kts | 252° |
| 2026-05-07 13:40 | 50.94946 | -1.39150 | 15850 ft | 377 kts | 255° |
| 2026-05-07 13:40 | 50.94357 | -1.43233 | 16522 ft | 380 kts | 256° |
| 2026-05-07 13:40 | 50.93820 | -1.47365 | 17169 ft | 384 kts | 257° |
| 2026-05-07 13:41 | 50.93310 | -1.51543 | 17787 ft | 387 kts | 258° |
| 2026-05-07 13:41 | 50.92818 | -1.55752 | 18438 ft | 390 kts | 258° |
| 2026-05-07 13:41 | 50.92298 | -1.59987 | 19010 ft | 393 kts | 257° |
| 2026-05-07 13:41 | 50.91751 | -1.64256 | 19567 ft | 397 kts | 257° |
| 2026-05-07 13:42 | 50.91188 | -1.68560 | 20128 ft | 400 kts | 257° |
| 2026-05-07 13:42 | 50.90617 | -1.72888 | 20669 ft | 403 kts | 257° |
| 2026-05-07 13:42 | 50.90038 | -1.77266 | 21196 ft | 407 kts | 257° |
| 2026-05-07 13:42 | 50.89455 | -1.81662 | 21764 ft | 409 kts | 257° |
| 2026-05-07 13:43 | 50.88874 | -1.86034 | 22265 ft | 413 kts | 257° |
| 2026-05-07 13:43 | 50.88274 | -1.90550 | 22775 ft | 416 kts | 257° |
| 2026-05-07 13:43 | 50.87685 | -1.94990 | 23257 ft | 419 kts | 257° |
| 2026-05-07 13:43 | 50.87084 | -1.99519 | 23726 ft | 422 kts | 257° |
| 2026-05-07 13:44 | 50.86479 | -2.04083 | 24183 ft | 425 kts | 257° |
| 2026-05-07 13:44 | 50.85894 | -2.08689 | 24624 ft | 428 kts | 257° |
| 2026-05-07 13:44 | 50.85308 | -2.13322 | 25064 ft | 431 kts | 257° |
| 2026-05-07 13:44 | 50.84695 | -2.17983 | 25481 ft | 433 kts | 257° |
| 2026-05-07 13:45 | 50.84065 | -2.22662 | 25858 ft | 437 kts | 256° |
| 2026-05-07 13:45 | 50.83425 | -2.27373 | 26262 ft | 439 kts | 256° |
| 2026-05-07 13:45 | 50.82778 | -2.32113 | 26653 ft | 442 kts | 256° |
| 2026-05-07 13:45 | 50.82126 | -2.36881 | 27023 ft | 444 kts | 256° |
| 2026-05-07 13:46 | 50.81472 | -2.41662 | 27386 ft | 447 kts | 256° |
| 2026-05-07 13:46 | 50.80820 | -2.46489 | 27732 ft | 448 kts | 258° |
| 2026-05-07 13:46 | 50.80470 | -2.51404 | 28007 ft | 453 kts | 266° |
| 2026-05-07 13:46 | 50.80591 | -2.56415 | 28349 ft | 457 kts | 274° |
| 2026-05-07 13:47 | 50.81046 | -2.61397 | 28662 ft | 460 kts | 278° |
| 2026-05-07 13:47 | 50.81690 | -2.66310 | 28964 ft | 463 kts | 282° |
| 2026-05-07 13:47 | 50.82481 | -2.71259 | 29257 ft | 465 kts | 283° |
| 2026-05-07 13:47 | 50.83351 | -2.76216 | 29546 ft | 468 kts | 284° |
| 2026-05-07 13:48 | 50.84238 | -2.81188 | 29821 ft | 470 kts | 284° |
| 2026-05-07 13:48 | 50.85113 | -2.86179 | 30072 ft | 472 kts | 284° |
| 2026-05-07 13:48 | 50.85982 | -2.91203 | 30329 ft | 474 kts | 284° |
| 2026-05-07 13:48 | 50.86844 | -2.96246 | 30575 ft | 475 kts | 283° |
| 2026-05-07 13:49 | 50.87703 | -3.01304 | 30805 ft | 477 kts | 283° |
| 2026-05-07 13:49 | 50.88550 | -3.06320 | 31074 ft | 477 kts | 283° |
| 2026-05-07 13:49 | 50.89429 | -3.11375 | 31408 ft | 476 kts | 284° |
| 2026-05-07 13:49 | 50.90329 | -3.16407 | 31744 ft | 475 kts | 284° |
| 2026-05-07 13:50 | 50.91217 | -3.21446 | 32047 ft | 474 kts | 284° |
| 2026-05-07 13:50 | 50.92089 | -3.26478 | 32347 ft | 473 kts | 284° |
| 2026-05-07 13:50 | 50.92950 | -3.31506 | 32649 ft | 472 kts | 283° |
| 2026-05-07 13:50 | 50.93804 | -3.36537 | 32949 ft | 471 kts | 283° |
| 2026-05-07 13:51 | 50.94649 | -3.41538 | 33235 ft | 470 kts | 283° |
| 2026-05-07 13:51 | 50.95490 | -3.46545 | 33524 ft | 469 kts | 283° |
| 2026-05-07 13:51 | 50.96327 | -3.51548 | 33808 ft | 468 kts | 283° |
| 2026-05-07 13:51 | 50.97160 | -3.56542 | 34073 ft | 468 kts | 283° |
| 2026-05-07 13:52 | 50.97989 | -3.61532 | 34298 ft | 468 kts | 283° |
| 2026-05-07 13:52 | 50.98818 | -3.66539 | 34516 ft | 469 kts | 283° |
| 2026-05-07 13:52 | 50.99633 | -3.71472 | 34757 ft | 468 kts | 283° |
| 2026-05-07 13:52 | 51.00459 | -3.76484 | 34974 ft | 469 kts | 283° |
| 2026-05-07 13:53 | 51.01280 | -3.81490 | 35191 ft | 469 kts | 283° |
| 2026-05-07 13:53 | 51.02100 | -3.86499 | 35416 ft | 469 kts | 283° |
| 2026-05-07 13:53 | 51.02919 | -3.91516 | 35634 ft | 469 kts | 283° |
| 2026-05-07 13:53 | 51.03736 | -3.96538 | 35823 ft | 469 kts | 283° |
| 2026-05-07 13:54 | 51.04551 | -4.01561 | 36020 ft | 469 kts | 283° |
| 2026-05-07 13:54 | 51.06178 | -4.11639 | 36043 ft | 470 kts | 283° |
| 2026-05-07 13:55 | 51.07786 | -4.21655 | 36041 ft | 471 kts | 282° |
| 2026-05-07 13:55 | 51.09396 | -4.31745 | 36039 ft | 471 kts | 282° |
| 2026-05-07 13:56 | 51.10998 | -4.41848 | 36033 ft | 470 kts | 282° |
| 2026-05-07 13:56 | 51.12590 | -4.51953 | 36030 ft | 470 kts | 282° |
| 2026-05-07 13:57 | 51.14174 | -4.62064 | 36028 ft | 470 kts | 282° |
| 2026-05-07 13:57 | 51.15739 | -4.72119 | 36028 ft | 470 kts | 282° |
| 2026-05-07 13:58 | 51.17307 | -4.82251 | 36027 ft | 471 kts | 282° |
| 2026-05-07 13:58 | 51.18866 | -4.92393 | 36027 ft | 471 kts | 282° |
| 2026-05-07 13:59 | 51.20416 | -5.02540 | 36025 ft | 471 kts | 282° |
| 2026-05-07 13:59 | 51.21947 | -5.12626 | 36021 ft | 471 kts | 282° |
| 2026-05-07 14:00 | 51.23490 | -5.22855 | 36021 ft | 471 kts | 282° |
| 2026-05-07 14:00 | 51.25004 | -5.32956 | 36020 ft | 471 kts | 282° |
| 2026-05-07 14:01 | 51.26520 | -5.43141 | 36020 ft | 471 kts | 281° |
| 2026-05-07 14:01 | 51.28030 | -5.53342 | 36020 ft | 471 kts | 281° |
| 2026-05-07 14:02 | 51.29530 | -5.63549 | 36019 ft | 472 kts | 281° |
| 2026-05-07 14:02 | 51.31010 | -5.73689 | 36018 ft | 472 kts | 281° |
| 2026-05-07 14:03 | 51.32493 | -5.83911 | 36017 ft | 472 kts | 281° |
| 2026-05-07 14:03 | 51.33968 | -5.94144 | 36015 ft | 472 kts | 281° |
| 2026-05-07 14:04 | 51.35435 | -6.04395 | 36014 ft | 472 kts | 281° |
| 2026-05-07 14:04 | 51.36891 | -6.14640 | 36013 ft | 472 kts | 281° |
| 2026-05-07 14:05 | 51.38340 | -6.24898 | 36012 ft | 472 kts | 281° |
| 2026-05-07 14:05 | 51.39778 | -6.35151 | 36009 ft | 472 kts | 281° |
| 2026-05-07 14:06 | 51.41209 | -6.45425 | 35994 ft | 472 kts | 281° |
| 2026-05-07 14:06 | 51.42620 | -6.55628 | 35991 ft | 472 kts | 280° |
| 2026-05-07 14:07 | 51.44078 | -6.65883 | 35991 ft | 472 kts | 281° |
| 2026-05-07 14:07 | 51.45490 | -6.76164 | 35992 ft | 472 kts | 280° |
| 2026-05-07 14:08 | 51.46861 | -6.86452 | 35991 ft | 471 kts | 280° |
| 2026-05-07 14:08 | 51.48224 | -6.96744 | 35991 ft | 471 kts | 280° |
| 2026-05-07 14:09 | 51.49588 | -7.07031 | 35991 ft | 471 kts | 280° |
| 2026-05-07 14:09 | 51.50640 | -7.17390 | 35987 ft | 470 kts | 274° |
| 2026-05-07 14:10 | 51.51236 | -7.27830 | 35986 ft | 469 kts | 273° |
| 2026-05-07 14:10 | 51.51836 | -7.38197 | 35984 ft | 468 kts | 274° |
| 2026-05-07 14:11 | 51.52496 | -7.48602 | 35983 ft | 469 kts | 274° |
| 2026-05-07 14:11 | 51.53212 | -7.59015 | 35981 ft | 469 kts | 275° |
| 2026-05-07 14:12 | 51.53969 | -7.69426 | 35978 ft | 468 kts | 274° |
| 2026-05-07 14:12 | 51.54609 | -7.79761 | 35976 ft | 468 kts | 274° |
| 2026-05-07 14:13 | 51.55241 | -7.90165 | 35974 ft | 468 kts | 274° |
| 2026-05-07 14:13 | 51.55872 | -8.00582 | 35972 ft | 468 kts | 274° |
| 2026-05-07 14:14 | 51.56455 | -8.11010 | 35971 ft | 468 kts | 271° |
| 2026-05-07 14:14 | 51.56735 | -8.21443 | 35969 ft | 467 kts | 270° |
| 2026-05-07 14:15 | 51.56969 | -8.31887 | 35968 ft | 467 kts | 270° |
| 2026-05-07 14:15 | 51.57235 | -8.42272 | 35967 ft | 467 kts | 270° |
| 2026-05-07 14:16 | 51.57506 | -8.52718 | 35965 ft | 467 kts | 270° |
| 2026-05-07 14:16 | 51.57783 | -8.63151 | 35965 ft | 467 kts | 271° |
| 2026-05-07 14:17 | 51.58150 | -8.73581 | 35965 ft | 467 kts | 272° |
| 2026-05-07 14:17 | 51.58474 | -8.83946 | 35966 ft | 467 kts | 270° |
| 2026-05-07 14:18 | 51.58708 | -8.94382 | 35965 ft | 467 kts | 270° |
| 2026-05-07 14:18 | 51.58933 | -9.04815 | 35965 ft | 467 kts | 270° |
| 2026-05-07 14:19 | 51.59155 | -9.15245 | 35966 ft | 466 kts | 270° |
| 2026-05-07 14:19 | 51.59508 | -9.25601 | 35967 ft | 466 kts | 274° |
| 2026-05-07 14:20 | 51.60408 | -9.35940 | 35966 ft | 467 kts | 277° |
| 2026-05-07 14:20 | 51.61465 | -9.46248 | 35966 ft | 467 kts | 277° |
| 2026-05-07 14:21 | 51.62452 | -9.56600 | 35967 ft | 467 kts | 277° |
| 2026-05-07 14:21 | 51.63390 | -9.66930 | 35967 ft | 466 kts | 277° |
| 2026-05-07 14:22 | 51.64308 | -9.77275 | 35967 ft | 466 kts | 277° |
| 2026-05-07 14:22 | 51.65312 | -9.87603 | 35967 ft | 466 kts | 277° |
| 2026-05-07 14:23 | 51.66281 | -9.97918 | 35967 ft | 466 kts | 277° |
| 2026-05-07 14:23 | 51.67213 | -10.08253 | 35967 ft | 466 kts | 277° |
| 2026-05-07 14:24 | 51.68120 | -10.18531 | 35966 ft | 465 kts | 276° |
| 2026-05-07 14:24 | 51.69018 | -10.28863 | 35967 ft | 465 kts | 276° |
| 2026-05-07 14:25 | 51.69905 | -10.39185 | 35968 ft | 465 kts | 276° |
| 2026-05-07 14:25 | 51.70783 | -10.49518 | 35969 ft | 465 kts | 276° |
| 2026-05-07 14:26 | 51.71504 | -10.58094 | 35968 ft | 465 kts | 276° |
| 2026-05-07 14:26 | 51.72363 | -10.68412 | 35969 ft | 464 kts | 276° |
| 2026-05-07 14:27 | 51.73213 | -10.78726 | 35969 ft | 463 kts | 276° |
| 2026-05-07 14:27 | 51.74052 | -10.89034 | 35970 ft | 463 kts | 276° |
| 2026-05-07 14:28 | 51.74882 | -10.99331 | 35970 ft | 462 kts | 276° |
| 2026-05-07 14:28 | 51.75699 | -11.09595 | 35970 ft | 461 kts | 276° |
| 2026-05-07 14:29 | 51.76502 | -11.19793 | 35971 ft | 460 kts | 276° |
| 2026-05-07 14:29 | 51.77299 | -11.30027 | 35972 ft | 459 kts | 276° |
| 2026-05-07 14:30 | 51.78085 | -11.40251 | 35972 ft | 458 kts | 275° |
| 2026-05-07 14:30 | 51.78861 | -11.50449 | 35972 ft | 457 kts | 275° |
| 2026-05-07 14:31 | 51.79627 | -11.60645 | 35972 ft | 457 kts | 275° |
| 2026-05-07 14:31 | 51.80385 | -11.70847 | 35973 ft | 456 kts | 275° |
| 2026-05-07 14:32 | 51.81132 | -11.81024 | 35974 ft | 456 kts | 275° |
| 2026-05-07 14:32 | 51.81870 | -11.91203 | 35974 ft | 456 kts | 275° |
| 2026-05-07 14:33 | 51.82594 | -12.01313 | 35975 ft | 455 kts | 275° |
| 2026-05-07 14:33 | 51.83314 | -12.11492 | 35975 ft | 455 kts | 275° |
| 2026-05-07 14:34 | 51.84025 | -12.21663 | 35976 ft | 455 kts | 275° |
| 2026-05-07 14:34 | 51.84726 | -12.31836 | 35976 ft | 455 kts | 275° |
| 2026-05-07 14:35 | 51.85418 | -12.42000 | 35977 ft | 454 kts | 275° |
| 2026-05-07 14:35 | 51.86097 | -12.52098 | 35978 ft | 454 kts | 275° |
| 2026-05-07 14:36 | 51.86771 | -12.62262 | 35978 ft | 454 kts | 275° |
| 2026-05-07 14:36 | 51.87434 | -12.72401 | 35978 ft | 453 kts | 275° |
| 2026-05-07 14:37 | 51.88089 | -12.82535 | 35978 ft | 453 kts | 275° |
| 2026-05-07 14:37 | 51.89054 | -12.97745 | 35978 ft | 452 kts | 274° |
| 2026-05-07 14:38 | 51.89681 | -13.07791 | 35978 ft | 451 kts | 274° |
| 2026-05-07 14:38 | 51.90302 | -13.17883 | 35978 ft | 450 kts | 274° |
| 2026-05-07 14:39 | 51.90913 | -13.27964 | 35979 ft | 449 kts | 274° |
| 2026-05-07 14:39 | 51.91514 | -13.38014 | 35980 ft | 448 kts | 274° |
| 2026-05-07 14:40 | 51.92106 | -13.48066 | 35980 ft | 447 kts | 274° |
| 2026-05-07 14:40 | 51.92685 | -13.58045 | 35980 ft | 447 kts | 274° |
| 2026-05-07 14:41 | 51.93258 | -13.68062 | 35980 ft | 446 kts | 274° |
| 2026-05-07 14:41 | 51.93822 | -13.78080 | 35981 ft | 446 kts | 273° |
| 2026-05-07 14:42 | 51.94377 | -13.88102 | 35982 ft | 446 kts | 273° |
| 2026-05-07 14:42 | 51.94925 | -13.98132 | 35982 ft | 446 kts | 273° |
| 2026-05-07 14:43 | 51.95463 | -14.08145 | 35982 ft | 446 kts | 273° |
| 2026-05-07 14:43 | 51.95993 | -14.18168 | 35983 ft | 446 kts | 273° |
| 2026-05-07 14:44 | 51.96511 | -14.28126 | 35983 ft | 446 kts | 273° |
| 2026-05-07 14:44 | 51.97024 | -14.38145 | 35983 ft | 446 kts | 273° |
| 2026-05-07 14:45 | 51.97530 | -14.48168 | 35983 ft | 446 kts | 273° |
| 2026-05-07 14:45 | 51.98084 | -14.58178 | 35984 ft | 445 kts | 273° |
| 2026-05-07 14:46 | 51.98564 | -14.68191 | 35985 ft | 445 kts | 273° |
| 2026-05-07 14:46 | 51.99019 | -14.78195 | 35985 ft | 444 kts | 273° |
| 2026-05-07 14:47 | 51.99469 | -14.88199 | 35986 ft | 444 kts | 273° |
| 2026-05-07 14:47 | 51.99919 | -14.98189 | 35986 ft | 444 kts | 273° |
| 2026-05-07 14:48 | 52.00260 | -15.08197 | 35986 ft | 444 kts | 270° |
| 2026-05-07 14:48 | 52.00398 | -15.18164 | 35986 ft | 444 kts | 270° |
| 2026-05-07 14:49 | 52.00528 | -15.28207 | 35986 ft | 444 kts | 270° |
| 2026-05-07 14:49 | 52.00668 | -15.38224 | 35986 ft | 443 kts | 270° |
| 2026-05-07 14:50 | 52.00805 | -15.48228 | 35987 ft | 443 kts | 270° |
| 2026-05-07 14:50 | 52.00950 | -15.58226 | 35987 ft | 443 kts | 271° |
| 2026-05-07 14:51 | 52.01179 | -15.68157 | 35987 ft | 443 kts | 271° |
| 2026-05-07 14:51 | 52.01366 | -15.78142 | 35987 ft | 442 kts | 270° |
| 2026-05-07 14:52 | 52.01521 | -15.88116 | 35988 ft | 441 kts | 270° |
| 2026-05-07 14:52 | 52.01659 | -15.98086 | 35988 ft | 441 kts | 270° |
| 2026-05-07 14:53 | 52.01785 | -16.08052 | 35989 ft | 442 kts | 270° |
| 2026-05-07 14:53 | 52.01902 | -16.18025 | 35990 ft | 442 kts | 270° |
| 2026-05-07 14:54 | 52.02009 | -16.27989 | 35991 ft | 442 kts | 270° |
| 2026-05-07 14:54 | 52.02108 | -16.37900 | 35991 ft | 442 kts | 270° |
| 2026-05-07 14:55 | 52.02198 | -16.47875 | 35991 ft | 442 kts | 270° |
| 2026-05-07 14:55 | 52.02281 | -16.57873 | 35991 ft | 442 kts | 269° |
| 2026-05-07 14:56 | 52.02354 | -16.67863 | 35991 ft | 443 kts | 269° |
| 2026-05-07 14:56 | 52.02420 | -16.77880 | 35992 ft | 443 kts | 269° |
| 2026-05-07 14:57 | 52.02477 | -16.87905 | 35992 ft | 444 kts | 269° |
| 2026-05-07 14:57 | 52.02525 | -16.97865 | 35993 ft | 444 kts | 269° |
| 2026-05-07 14:58 | 52.02565 | -17.07883 | 35993 ft | 444 kts | 269° |
| 2026-05-07 14:58 | 52.02596 | -17.17913 | 35994 ft | 444 kts | 269° |
| 2026-05-07 14:59 | 52.02619 | -17.27962 | 35994 ft | 444 kts | 269° |
| 2026-05-07 14:59 | 52.02634 | -17.37991 | 35994 ft | 444 kts | 269° |
| 2026-05-07 15:00 | 52.02640 | -17.48026 | 35994 ft | 444 kts | 269° |
| 2026-05-07 15:00 | 52.02637 | -17.58056 | 35994 ft | 444 kts | 269° |
| 2026-05-07 15:01 | 52.02626 | -17.68040 | 35995 ft | 444 kts | 269° |
| 2026-05-07 15:01 | 52.02607 | -17.78072 | 35995 ft | 444 kts | 269° |
| 2026-05-07 15:02 | 52.02579 | -17.88109 | 35995 ft | 444 kts | 269° |
| 2026-05-07 15:02 | 52.02542 | -17.98136 | 35996 ft | 444 kts | 269° |
| 2026-05-07 15:03 | 52.02497 | -18.08162 | 35996 ft | 444 kts | 269° |
| 2026-05-07 15:03 | 52.02444 | -18.18109 | 35996 ft | 444 kts | 268° |
| 2026-05-07 15:04 | 52.02382 | -18.28136 | 35997 ft | 444 kts | 268° |
| 2026-05-07 15:04 | 52.02311 | -18.38153 | 35997 ft | 444 kts | 268° |
| 2026-05-07 15:05 | 52.02232 | -18.48208 | 35997 ft | 445 kts | 268° |
| 2026-05-07 15:05 | 52.02145 | -18.58274 | 35997 ft | 445 kts | 268° |
| 2026-05-07 15:06 | 52.02048 | -18.68330 | 35994 ft | 445 kts | 268° |
| 2026-05-07 15:06 | 52.01944 | -18.78311 | 35994 ft | 445 kts | 268° |
| 2026-05-07 15:07 | 52.01831 | -18.88342 | 35994 ft | 445 kts | 268° |
| 2026-05-07 15:07 | 52.01709 | -18.98391 | 35994 ft | 446 kts | 268° |
| 2026-05-07 15:08 | 52.01578 | -19.08462 | 35995 ft | 446 kts | 268° |
| 2026-05-07 15:08 | 52.01439 | -19.18541 | 35995 ft | 447 kts | 268° |
| 2026-05-07 15:09 | 52.01291 | -19.28628 | 35995 ft | 447 kts | 268° |
| 2026-05-07 15:09 | 52.01134 | -19.38716 | 35995 ft | 447 kts | 268° |
| 2026-05-07 15:10 | 52.00975 | -19.48812 | 35995 ft | 447 kts | 268° |
| 2026-05-07 15:10 | 52.00859 | -19.58837 | 35996 ft | 448 kts | 268° |
| 2026-05-07 15:11 | 52.00666 | -19.68946 | 35996 ft | 447 kts | 267° |
| 2026-05-07 15:11 | 52.00452 | -19.79053 | 35996 ft | 447 kts | 267° |
| 2026-05-07 15:12 | 52.00235 | -19.89136 | 35995 ft | 447 kts | 267° |
| 2026-05-07 15:12 | 52.00018 | -19.99171 | 35997 ft | 447 kts | 267° |
| 2026-05-07 15:13 | 51.99617 | -20.09234 | 35996 ft | 447 kts | 264° |
| 2026-05-07 15:13 | 51.98961 | -20.19272 | 35997 ft | 447 kts | 263° |
| 2026-05-07 15:14 | 51.98297 | -20.29305 | 36000 ft | 447 kts | 263° |
| 2026-05-07 15:14 | 51.97652 | -20.39340 | 36017 ft | 447 kts | 264° |
| 2026-05-07 15:15 | 51.97014 | -20.49307 | 36018 ft | 447 kts | 264° |
| 2026-05-07 15:15 | 51.96393 | -20.59332 | 36018 ft | 447 kts | 264° |
| 2026-05-07 15:16 | 51.95847 | -20.69388 | 36018 ft | 448 kts | 264° |
| 2026-05-07 15:16 | 51.95358 | -20.77760 | 36017 ft | 448 kts | 264° |
| 2026-05-07 15:17 | 51.94739 | -20.87843 | 36019 ft | 449 kts | 264° |
| 2026-05-07 15:17 | 51.94100 | -20.97946 | 36019 ft | 450 kts | 264° |
| 2026-05-07 15:18 | 51.93454 | -21.07959 | 36069 ft | 450 kts | 264° |
| 2026-05-07 15:18 | 51.92793 | -21.18048 | 36078 ft | 451 kts | 264° |
| 2026-05-07 15:19 | 51.92120 | -21.28172 | 36077 ft | 452 kts | 264° |
| 2026-05-07 15:19 | 51.91437 | -21.38315 | 36079 ft | 453 kts | 264° |
| 2026-05-07 15:20 | 51.90743 | -21.48476 | 36078 ft | 454 kts | 264° |
| 2026-05-07 15:20 | 51.90041 | -21.58633 | 36079 ft | 453 kts | 264° |
| 2026-05-07 15:21 | 51.89335 | -21.68708 | 36079 ft | 454 kts | 264° |
| 2026-05-07 15:21 | 51.88615 | -21.78862 | 36079 ft | 454 kts | 264° |
| 2026-05-07 15:22 | 51.87884 | -21.89042 | 36078 ft | 454 kts | 264° |
| 2026-05-07 15:22 | 51.87146 | -21.99192 | 36078 ft | 454 kts | 264° |
| 2026-05-07 15:23 | 51.86399 | -22.09345 | 36078 ft | 454 kts | 264° |
| 2026-05-07 15:23 | 51.85643 | -22.19502 | 36079 ft | 454 kts | 264° |
| 2026-05-07 15:24 | 51.84878 | -22.29654 | 36079 ft | 454 kts | 264° |
| 2026-05-07 15:24 | 51.84105 | -22.39793 | 36079 ft | 455 kts | 264° |
| 2026-05-07 15:25 | 51.83328 | -22.49875 | 36079 ft | 455 kts | 264° |
| 2026-05-07 15:25 | 51.82535 | -22.60040 | 36079 ft | 456 kts | 264° |
| 2026-05-07 15:26 | 51.81732 | -22.70215 | 36080 ft | 456 kts | 264° |
| 2026-05-07 15:26 | 51.80920 | -22.80393 | 36080 ft | 456 kts | 264° |
| 2026-05-07 15:27 | 51.80100 | -22.90563 | 36080 ft | 457 kts | 264° |
| 2026-05-07 15:27 | 51.79268 | -23.00755 | 36080 ft | 457 kts | 264° |
| 2026-05-07 15:28 | 51.78428 | -23.10946 | 36080 ft | 458 kts | 264° |
| 2026-05-07 15:28 | 51.77583 | -23.21087 | 36080 ft | 459 kts | 264° |
| 2026-05-07 15:29 | 51.76723 | -23.31299 | 36080 ft | 459 kts | 264° |
| 2026-05-07 15:29 | 51.75853 | -23.41507 | 36080 ft | 460 kts | 264° |
| 2026-05-07 15:30 | 51.74973 | -23.51739 | 36080 ft | 460 kts | 264° |
| 2026-05-07 15:30 | 51.74085 | -23.61959 | 36069 ft | 460 kts | 264° |
| 2026-05-07 15:31 | 51.73186 | -23.72190 | 36045 ft | 460 kts | 264° |
| 2026-05-07 15:31 | 51.72279 | -23.82402 | 36035 ft | 460 kts | 264° |
| 2026-05-07 15:32 | 51.71363 | -23.92626 | 36035 ft | 460 kts | 264° |
| 2026-05-07 15:32 | 51.70438 | -24.02841 | 36035 ft | 461 kts | 264° |
| 2026-05-07 15:33 | 51.69504 | -24.13051 | 36035 ft | 461 kts | 264° |
| 2026-05-07 15:33 | 51.68561 | -24.23269 | 36035 ft | 461 kts | 264° |
| 2026-05-07 15:34 | 51.67609 | -24.33471 | 36035 ft | 460 kts | 264° |
| 2026-05-07 15:34 | 51.66648 | -24.43673 | 36036 ft | 461 kts | 264° |
| 2026-05-07 15:35 | 51.65684 | -24.53806 | 36074 ft | 460 kts | 264° |
| 2026-05-07 15:35 | 51.64704 | -24.64020 | 36286 ft | 462 kts | 264° |
| 2026-05-07 15:36 | 51.64211 | -24.69120 | 36552 ft | 461 kts | 264° |
| 2026-05-07 15:36 | 51.63716 | -24.74211 | 36788 ft | 460 kts | 264° |
| 2026-05-07 15:36 | 51.63219 | -24.79313 | 36982 ft | 461 kts | 264° |
| 2026-05-07 15:36 | 51.62719 | -24.84411 | 37086 ft | 461 kts | 264° |
| 2026-05-07 15:37 | 51.61710 | -24.94626 | 37071 ft | 462 kts | 264° |
| 2026-05-07 15:37 | 51.60693 | -25.04839 | 37070 ft | 461 kts | 264° |
| 2026-05-07 15:38 | 51.59668 | -25.15029 | 37070 ft | 461 kts | 264° |
| 2026-05-07 15:38 | 51.58643 | -25.25141 | 37080 ft | 461 kts | 264° |
| 2026-05-07 15:39 | 51.57601 | -25.35321 | 37080 ft | 461 kts | 265° |
| 2026-05-07 15:39 | 51.56550 | -25.45496 | 37080 ft | 461 kts | 265° |
| 2026-05-07 15:40 | 51.55491 | -25.55663 | 37080 ft | 461 kts | 265° |
| 2026-05-07 15:40 | 51.54424 | -25.65811 | 37080 ft | 461 kts | 265° |
| 2026-05-07 15:41 | 51.53354 | -25.75907 | 37069 ft | 461 kts | 265° |
| 2026-05-07 15:41 | 51.52271 | -25.86041 | 37068 ft | 460 kts | 265° |
| 2026-05-07 15:42 | 51.51179 | -25.96162 | 37068 ft | 460 kts | 265° |
| 2026-05-07 15:42 | 51.50077 | -26.06295 | 37067 ft | 460 kts | 265° |
| 2026-05-07 15:43 | 51.48967 | -26.16418 | 37067 ft | 461 kts | 265° |
| 2026-05-07 15:43 | 51.47848 | -26.26545 | 37066 ft | 461 kts | 265° |
| 2026-05-07 15:44 | 51.46718 | -26.36676 | 37066 ft | 461 kts | 265° |
| 2026-05-07 15:44 | 51.45580 | -26.46805 | 37065 ft | 461 kts | 265° |
| 2026-05-07 15:45 | 51.44439 | -26.56871 | 37066 ft | 461 kts | 265° |
| 2026-05-07 15:45 | 51.43283 | -26.66990 | 37066 ft | 461 kts | 265° |
| 2026-05-07 15:46 | 51.41530 | -26.82187 | 37065 ft | 462 kts | 265° |
| 2026-05-07 15:47 | 51.40350 | -26.92312 | 37064 ft | 462 kts | 265° |
| 2026-05-07 15:47 | 51.39170 | -27.02364 | 37064 ft | 462 kts | 265° |
| 2026-05-07 15:48 | 51.37974 | -27.12461 | 37088 ft | 461 kts | 265° |
| 2026-05-07 15:48 | 51.36769 | -27.22566 | 37103 ft | 462 kts | 265° |
| 2026-05-07 15:49 | 51.35554 | -27.32670 | 37103 ft | 462 kts | 265° |
| 2026-05-07 15:49 | 51.34331 | -27.42770 | 37102 ft | 462 kts | 265° |
| 2026-05-07 15:50 | 51.33099 | -27.52861 | 37102 ft | 462 kts | 265° |
| 2026-05-07 15:50 | 51.31862 | -27.62929 | 37101 ft | 461 kts | 265° |
| 2026-05-07 15:51 | 51.30620 | -27.72936 | 37105 ft | 461 kts | 265° |
| 2026-05-07 15:51 | 51.29368 | -27.82982 | 37103 ft | 461 kts | 265° |
| 2026-05-07 15:52 | 51.28103 | -27.93036 | 37101 ft | 462 kts | 265° |
| 2026-05-07 15:52 | 51.26824 | -28.03110 | 37104 ft | 462 kts | 265° |
| 2026-05-07 15:53 | 51.25543 | -28.13164 | 37100 ft | 462 kts | 265° |
| 2026-05-07 15:53 | 51.24253 | -28.23208 | 37100 ft | 462 kts | 265° |
| 2026-05-07 15:54 | 51.22953 | -28.33252 | 37100 ft | 462 kts | 265° |
| 2026-05-07 15:54 | 51.21654 | -28.43212 | 37100 ft | 462 kts | 265° |
| 2026-05-07 15:55 | 51.20338 | -28.53238 | 37100 ft | 462 kts | 265° |
| 2026-05-07 15:55 | 51.19011 | -28.63269 | 37099 ft | 462 kts | 265° |
| 2026-05-07 15:56 | 51.17675 | -28.73304 | 37099 ft | 462 kts | 265° |
| 2026-05-07 15:56 | 51.16332 | -28.83316 | 37099 ft | 462 kts | 265° |
| 2026-05-07 15:57 | 51.14982 | -28.93315 | 37098 ft | 462 kts | 265° |
| 2026-05-07 15:57 | 51.13623 | -29.03315 | 37098 ft | 462 kts | 265° |
| 2026-05-07 15:58 | 51.12255 | -29.13308 | 37098 ft | 462 kts | 265° |
| 2026-05-07 15:58 | 51.10879 | -29.23291 | 37098 ft | 462 kts | 264° |
| 2026-05-07 15:59 | 51.09502 | -29.33211 | 37098 ft | 461 kts | 265° |
| 2026-05-07 15:59 | 51.08110 | -29.43182 | 37097 ft | 461 kts | 264° |
| 2026-05-07 16:00 | 51.06729 | -29.53148 | 37097 ft | 460 kts | 265° |
| 2026-05-07 16:00 | 51.05371 | -29.63037 | 37097 ft | 461 kts | 264° |
| 2026-05-07 16:01 | 51.03939 | -29.72973 | 37097 ft | 461 kts | 264° |
| 2026-05-07 16:01 | 51.02495 | -29.82896 | 37096 ft | 461 kts | 264° |
| 2026-05-07 16:02 | 51.01046 | -29.92825 | 37096 ft | 461 kts | 264° |
| 2026-05-07 16:02 | 50.99631 | -30.02685 | 37124 ft | 459 kts | 266° |
| 2026-05-07 16:03 | 50.98533 | -30.12622 | 37128 ft | 457 kts | 268° |
| 2026-05-07 16:03 | 50.97538 | -30.22591 | 37128 ft | 457 kts | 268° |
| 2026-05-07 16:04 | 50.96489 | -30.32546 | 37128 ft | 458 kts | 268° |
| 2026-05-07 16:04 | 50.95407 | -30.42506 | 37128 ft | 458 kts | 267° |
| 2026-05-07 16:05 | 50.94309 | -30.52443 | 37128 ft | 457 kts | 267° |
| 2026-05-07 16:05 | 50.93451 | -30.60703 | 37128 ft | 456 kts | 268° |
| 2026-05-07 16:06 | 50.92426 | -30.70648 | 37120 ft | 457 kts | 268° |
| 2026-05-07 16:06 | 50.91181 | -30.82199 | 37119 ft | 458 kts | 267° |
| 2026-05-07 16:07 | 50.90263 | -30.90533 | 37119 ft | 458 kts | 267° |
| 2026-05-07 16:07 | 50.89161 | -31.00413 | 37119 ft | 458 kts | 267° |
| 2026-05-07 16:08 | 50.88043 | -31.10338 | 37119 ft | 458 kts | 267° |
| 2026-05-07 16:08 | 50.86916 | -31.20254 | 37174 ft | 457 kts | 267° |
| 2026-05-07 16:09 | 50.85781 | -31.30160 | 37185 ft | 458 kts | 266° |
| 2026-05-07 16:09 | 50.84635 | -31.40080 | 37185 ft | 458 kts | 266° |
| 2026-05-07 16:10 | 50.83478 | -31.50017 | 37185 ft | 459 kts | 266° |
| 2026-05-07 16:10 | 50.82321 | -31.59881 | 37185 ft | 459 kts | 266° |
| 2026-05-07 16:11 | 50.81146 | -31.69815 | 37185 ft | 458 kts | 266° |
| 2026-05-07 16:11 | 50.79968 | -31.79705 | 37185 ft | 458 kts | 266° |
| 2026-05-07 16:12 | 50.78778 | -31.89615 | 37185 ft | 459 kts | 266° |
| 2026-05-07 16:12 | 50.77580 | -31.99521 | 37185 ft | 459 kts | 266° |
| 2026-05-07 16:13 | 50.76372 | -32.09434 | 37185 ft | 460 kts | 266° |
| 2026-05-07 16:13 | 50.75154 | -32.19350 | 37185 ft | 460 kts | 266° |
| 2026-05-07 16:14 | 50.73936 | -32.29202 | 37184 ft | 460 kts | 266° |
| 2026-05-07 16:14 | 50.72701 | -32.39111 | 37184 ft | 460 kts | 266° |
| 2026-05-07 16:15 | 50.71459 | -32.49006 | 37184 ft | 459 kts | 266° |
| 2026-05-07 16:15 | 50.70208 | -32.58900 | 37184 ft | 459 kts | 266° |
| 2026-05-07 16:16 | 50.68951 | -32.68771 | 37184 ft | 459 kts | 266° |
| 2026-05-07 16:16 | 50.67684 | -32.78653 | 37184 ft | 459 kts | 265° |
| 2026-05-07 16:17 | 50.66417 | -32.88459 | 37184 ft | 459 kts | 266° |
| 2026-05-07 16:17 | 50.65134 | -32.98324 | 37184 ft | 459 kts | 265° |
| 2026-05-07 16:18 | 50.63841 | -33.08195 | 37184 ft | 460 kts | 265° |
| 2026-05-07 16:18 | 50.62538 | -33.18067 | 37183 ft | 460 kts | 265° |
| 2026-05-07 16:19 | 50.61228 | -33.27932 | 37184 ft | 460 kts | 265° |
| 2026-05-07 16:19 | 50.59908 | -33.37800 | 37185 ft | 460 kts | 265° |
| 2026-05-07 16:20 | 50.58581 | -33.47657 | 37184 ft | 461 kts | 265° |
| 2026-05-07 16:20 | 50.57248 | -33.57485 | 37184 ft | 462 kts | 265° |
| 2026-05-07 16:21 | 50.55900 | -33.67361 | 37184 ft | 462 kts | 265° |
| 2026-05-07 16:21 | 50.54542 | -33.77242 | 37184 ft | 463 kts | 265° |
| 2026-05-07 16:22 | 50.53174 | -33.87132 | 37184 ft | 462 kts | 265° |
| 2026-05-07 16:22 | 50.51799 | -33.97004 | 37184 ft | 462 kts | 265° |
| 2026-05-07 16:23 | 50.50415 | -34.06874 | 37184 ft | 463 kts | 265° |
| 2026-05-07 16:23 | 50.49018 | -34.16769 | 37184 ft | 463 kts | 265° |
| 2026-05-07 16:24 | 50.47624 | -34.26581 | 37184 ft | 464 kts | 265° |
| 2026-05-07 16:24 | 50.46211 | -34.36464 | 37184 ft | 464 kts | 265° |
| 2026-05-07 16:25 | 50.44790 | -34.46336 | 37185 ft | 463 kts | 265° |
| 2026-05-07 16:25 | 50.43362 | -34.56194 | 37186 ft | 462 kts | 265° |
| 2026-05-07 16:26 | 50.41926 | -34.66043 | 37186 ft | 463 kts | 265° |
| 2026-05-07 16:26 | 50.40482 | -34.75883 | 37186 ft | 463 kts | 264° |
| 2026-05-07 16:27 | 50.39032 | -34.85707 | 37186 ft | 463 kts | 264° |
| 2026-05-07 16:27 | 50.37581 | -34.95473 | 37186 ft | 463 kts | 264° |
| 2026-05-07 16:28 | 50.36111 | -35.05301 | 37186 ft | 463 kts | 264° |
| 2026-05-07 16:28 | 50.34634 | -35.15119 | 37186 ft | 463 kts | 264° |
| 2026-05-07 16:29 | 50.33144 | -35.24962 | 37186 ft | 464 kts | 264° |
| 2026-05-07 16:29 | 50.31647 | -35.34787 | 37187 ft | 464 kts | 264° |
| 2026-05-07 16:30 | 50.30138 | -35.44635 | 37186 ft | 465 kts | 264° |
| 2026-05-07 16:30 | 50.28619 | -35.54482 | 37186 ft | 466 kts | 264° |
| 2026-05-07 16:31 | 50.27101 | -35.64265 | 37187 ft | 466 kts | 264° |
| 2026-05-07 16:31 | 50.25561 | -35.74133 | 37187 ft | 467 kts | 264° |
| 2026-05-07 16:32 | 50.24014 | -35.83984 | 37187 ft | 467 kts | 264° |
| 2026-05-07 16:32 | 50.22457 | -35.93835 | 37187 ft | 467 kts | 264° |
| 2026-05-07 16:33 | 50.20892 | -36.03684 | 37188 ft | 468 kts | 264° |
| 2026-05-07 16:33 | 50.19312 | -36.13567 | 37188 ft | 469 kts | 263° |
| 2026-05-07 16:34 | 50.17725 | -36.23430 | 37187 ft | 468 kts | 263° |
| 2026-05-07 16:34 | 50.16132 | -36.33277 | 37187 ft | 467 kts | 263° |
| 2026-05-07 16:35 | 50.14544 | -36.43033 | 37187 ft | 467 kts | 263° |
| 2026-05-07 16:35 | 50.12933 | -36.52877 | 37188 ft | 467 kts | 263° |
| 2026-05-07 16:36 | 50.11319 | -36.62676 | 37184 ft | 467 kts | 263° |
| 2026-05-07 16:36 | 50.09698 | -36.72465 | 37184 ft | 466 kts | 263° |
| 2026-05-07 16:37 | 50.08070 | -36.82239 | 37184 ft | 466 kts | 263° |
| 2026-05-07 16:37 | 50.06434 | -36.92008 | 37184 ft | 466 kts | 263° |
| 2026-05-07 16:38 | 50.04793 | -37.01749 | 37184 ft | 465 kts | 262° |
| 2026-05-07 16:38 | 50.03143 | -37.11488 | 37184 ft | 465 kts | 262° |
| 2026-05-07 16:39 | 50.01499 | -37.21134 | 37189 ft | 464 kts | 262° |
| 2026-05-07 16:39 | 49.99835 | -37.30851 | 37189 ft | 465 kts | 262° |
| 2026-05-07 16:40 | 49.98160 | -37.40576 | 37189 ft | 467 kts | 262° |
| 2026-05-07 16:40 | 49.96466 | -37.50350 | 37189 ft | 469 kts | 262° |
| 2026-05-07 16:41 | 49.94764 | -37.60123 | 37189 ft | 469 kts | 261° |
| 2026-05-07 16:41 | 49.93065 | -37.69823 | 37189 ft | 467 kts | 261° |
| 2026-05-07 16:42 | 49.91351 | -37.79553 | 37189 ft | 467 kts | 261° |
| 2026-05-07 16:42 | 49.89631 | -37.89267 | 37189 ft | 467 kts | 261° |
| 2026-05-07 16:43 | 49.87899 | -37.98995 | 37189 ft | 467 kts | 261° |
| 2026-05-07 16:43 | 49.86163 | -38.08696 | 37189 ft | 467 kts | 261° |
| 2026-05-07 16:44 | 49.84427 | -38.18340 | 37189 ft | 467 kts | 261° |
| 2026-05-07 16:44 | 49.82672 | -38.28042 | 37189 ft | 467 kts | 261° |
| 2026-05-07 16:45 | 49.80908 | -38.37741 | 37189 ft | 468 kts | 261° |
| 2026-05-07 16:45 | 49.79136 | -38.47434 | 37189 ft | 468 kts | 261° |
| 2026-05-07 16:46 | 49.77364 | -38.57074 | 37189 ft | 469 kts | 260° |
| 2026-05-07 16:46 | 49.75571 | -38.66777 | 37189 ft | 469 kts | 260° |
| 2026-05-07 16:47 | 49.73762 | -38.76514 | 37189 ft | 470 kts | 260° |
| 2026-05-07 16:47 | 49.71957 | -38.86181 | 37189 ft | 470 kts | 260° |
| 2026-05-07 16:48 | 49.70136 | -38.95883 | 37189 ft | 469 kts | 259° |
| 2026-05-07 16:48 | 49.68308 | -39.05571 | 37189 ft | 469 kts | 259° |
| 2026-05-07 16:49 | 49.66481 | -39.15207 | 37189 ft | 470 kts | 259° |
| 2026-05-07 16:49 | 49.64638 | -39.24876 | 37189 ft | 469 kts | 259° |
| 2026-05-07 16:50 | 49.62786 | -39.34542 | 37189 ft | 469 kts | 259° |
| 2026-05-07 16:50 | 49.60932 | -39.44170 | 37189 ft | 469 kts | 259° |
| 2026-05-07 16:51 | 49.59074 | -39.53807 | 37189 ft | 468 kts | 259° |
| 2026-05-07 16:51 | 49.57253 | -39.63432 | 37189 ft | 468 kts | 258° |
| 2026-05-07 16:52 | 49.55376 | -39.72969 | 37189 ft | 468 kts | 258° |
| 2026-05-07 16:52 | 49.53470 | -39.82565 | 37189 ft | 468 kts | 258° |
| 2026-05-07 16:53 | 49.51563 | -39.92146 | 37189 ft | 468 kts | 258° |
| 2026-05-07 16:53 | 49.49753 | -40.01761 | 37189 ft | 465 kts | 262° |
| 2026-05-07 16:54 | 49.48563 | -40.11524 | 37189 ft | 463 kts | 266° |
| 2026-05-07 16:54 | 49.47633 | -40.21243 | 37189 ft | 462 kts | 266° |
| 2026-05-07 16:55 | 49.46645 | -40.30993 | 37189 ft | 462 kts | 266° |
| 2026-05-07 16:55 | 49.45602 | -40.40750 | 37189 ft | 463 kts | 265° |
| 2026-05-07 16:56 | 49.44713 | -40.48870 | 37189 ft | 463 kts | 265° |
| 2026-05-07 16:56 | 49.43188 | -40.63568 | 37189 ft | 464 kts | 265° |
| 2026-05-07 16:57 | 49.42157 | -40.73364 | 37189 ft | 464 kts | 265° |
| 2026-05-07 16:57 | 49.41093 | -40.83153 | 37190 ft | 464 kts | 265° |
| 2026-05-07 16:58 | 49.40012 | -40.92938 | 37189 ft | 465 kts | 264° |
| 2026-05-07 16:58 | 49.38925 | -41.02660 | 37189 ft | 465 kts | 264° |
| 2026-05-07 16:59 | 49.37819 | -41.12469 | 37189 ft | 465 kts | 264° |
| 2026-05-07 16:59 | 49.36709 | -41.22230 | 37189 ft | 465 kts | 264° |
| 2026-05-07 17:00 | 49.35590 | -41.31988 | 37189 ft | 464 kts | 264° |
| 2026-05-07 17:00 | 49.34461 | -41.41750 | 37190 ft | 464 kts | 264° |
| 2026-05-07 17:01 | 49.33334 | -41.51431 | 37189 ft | 464 kts | 264° |
| 2026-05-07 17:01 | 49.32192 | -41.61163 | 37189 ft | 464 kts | 263° |
| 2026-05-07 17:02 | 49.31041 | -41.70896 | 37189 ft | 464 kts | 263° |
| 2026-05-07 17:02 | 49.29883 | -41.80613 | 37189 ft | 464 kts | 263° |
| 2026-05-07 17:03 | 49.28716 | -41.90337 | 37189 ft | 464 kts | 263° |
| 2026-05-07 17:03 | 49.27541 | -42.00047 | 37189 ft | 464 kts | 263° |
| 2026-05-07 17:04 | 49.26356 | -42.09776 | 37190 ft | 464 kts | 263° |
| 2026-05-07 17:04 | 49.25164 | -42.19486 | 37189 ft | 464 kts | 263° |
| 2026-05-07 17:05 | 49.23962 | -42.29210 | 37174 ft | 465 kts | 263° |
| 2026-05-07 17:05 | 49.22759 | -42.38872 | 37131 ft | 465 kts | 262° |
| 2026-05-07 17:06 | 49.21539 | -42.48601 | 37127 ft | 466 kts | 262° |
| 2026-05-07 17:06 | 49.20309 | -42.58332 | 37127 ft | 466 kts | 262° |
| 2026-05-07 17:07 | 49.19068 | -42.68087 | 37127 ft | 466 kts | 262° |
| 2026-05-07 17:07 | 49.17820 | -42.77824 | 37127 ft | 467 kts | 262° |
| 2026-05-07 17:08 | 49.16572 | -42.87500 | 37127 ft | 467 kts | 262° |
| 2026-05-07 17:08 | 49.15303 | -42.97259 | 37127 ft | 467 kts | 262° |
| 2026-05-07 17:09 | 49.14028 | -43.07007 | 37127 ft | 468 kts | 262° |
| 2026-05-07 17:09 | 49.12750 | -43.16706 | 37127 ft | 468 kts | 261° |
| 2026-05-07 17:10 | 49.11458 | -43.26440 | 37127 ft | 468 kts | 261° |
| 2026-05-07 17:10 | 49.10158 | -43.36171 | 37127 ft | 468 kts | 261° |
| 2026-05-07 17:11 | 49.08849 | -43.45907 | 37128 ft | 468 kts | 261° |
| 2026-05-07 17:11 | 49.07529 | -43.55652 | 37128 ft | 468 kts | 261° |
| 2026-05-07 17:12 | 49.06203 | -43.65381 | 37128 ft | 469 kts | 261° |
| 2026-05-07 17:12 | 49.04867 | -43.75120 | 37128 ft | 469 kts | 261° |
| 2026-05-07 17:13 | 49.03531 | -43.84788 | 37128 ft | 469 kts | 261° |
| 2026-05-07 17:13 | 49.02176 | -43.94531 | 37128 ft | 469 kts | 261° |
| 2026-05-07 17:14 | 49.00814 | -44.04266 | 37128 ft | 469 kts | 261° |
| 2026-05-07 17:14 | 48.99445 | -44.13981 | 37128 ft | 469 kts | 260° |
| 2026-05-07 17:15 | 48.98068 | -44.23689 | 37128 ft | 469 kts | 260° |
| 2026-05-07 17:15 | 48.96683 | -44.33392 | 37128 ft | 469 kts | 260° |
| 2026-05-07 17:16 | 48.95297 | -44.43039 | 37128 ft | 469 kts | 260° |
| 2026-05-07 17:16 | 48.93894 | -44.52745 | 37128 ft | 469 kts | 260° |
| 2026-05-07 17:17 | 48.92484 | -44.62439 | 37128 ft | 469 kts | 260° |
| 2026-05-07 17:17 | 48.91067 | -44.72115 | 37128 ft | 469 kts | 259° |
| 2026-05-07 17:18 | 48.89642 | -44.81788 | 37129 ft | 469 kts | 259° |
| 2026-05-07 17:18 | 48.88211 | -44.91446 | 37129 ft | 469 kts | 259° |
| 2026-05-07 17:19 | 48.86769 | -45.01108 | 37129 ft | 468 kts | 259° |
| 2026-05-07 17:19 | 48.85323 | -45.10743 | 37128 ft | 468 kts | 259° |
| 2026-05-07 17:20 | 48.83875 | -45.20334 | 37129 ft | 468 kts | 259° |
| 2026-05-07 17:20 | 48.82413 | -45.29958 | 37129 ft | 468 kts | 259° |
| 2026-05-07 17:21 | 48.80942 | -45.39582 | 37129 ft | 468 kts | 259° |
| 2026-05-07 17:21 | 48.79463 | -45.49198 | 37133 ft | 468 kts | 259° |
| 2026-05-07 17:22 | 48.77976 | -45.58815 | 37133 ft | 468 kts | 259° |
| 2026-05-07 17:22 | 48.76482 | -45.68414 | 37133 ft | 468 kts | 259° |
| 2026-05-07 17:23 | 48.74977 | -45.78027 | 37133 ft | 468 kts | 259° |
| 2026-05-07 17:23 | 48.73466 | -45.87627 | 37133 ft | 468 kts | 258° |
| 2026-05-07 17:24 | 48.71946 | -45.97222 | 37133 ft | 468 kts | 258° |
| 2026-05-07 17:24 | 48.70429 | -46.06745 | 37133 ft | 467 kts | 258° |
| 2026-05-07 17:25 | 48.68898 | -46.16299 | 37133 ft | 466 kts | 258° |
| 2026-05-07 17:25 | 48.67363 | -46.25822 | 37133 ft | 466 kts | 258° |
| 2026-05-07 17:26 | 48.65819 | -46.35353 | 37133 ft | 466 kts | 258° |
| 2026-05-07 17:26 | 48.64265 | -46.44885 | 37133 ft | 466 kts | 258° |
| 2026-05-07 17:27 | 48.62706 | -46.54396 | 37133 ft | 466 kts | 258° |
| 2026-05-07 17:27 | 48.61150 | -46.63836 | 37134 ft | 465 kts | 258° |
| 2026-05-07 17:28 | 48.59579 | -46.73312 | 37134 ft | 465 kts | 257° |
| 2026-05-07 17:28 | 48.58000 | -46.82784 | 37134 ft | 464 kts | 257° |
| 2026-05-07 17:29 | 48.56418 | -46.92225 | 37134 ft | 464 kts | 257° |
| 2026-05-07 17:29 | 48.54828 | -47.01659 | 37134 ft | 463 kts | 257° |
| 2026-05-07 17:30 | 48.53238 | -47.11037 | 37135 ft | 463 kts | 257° |
| 2026-05-07 17:30 | 48.51634 | -47.20450 | 37134 ft | 463 kts | 257° |
| 2026-05-07 17:31 | 48.50025 | -47.29845 | 37134 ft | 462 kts | 257° |
| 2026-05-07 17:31 | 48.48409 | -47.39230 | 37135 ft | 463 kts | 257° |
| 2026-05-07 17:32 | 48.46782 | -47.48628 | 37135 ft | 463 kts | 257° |
| 2026-05-07 17:32 | 48.45425 | -47.56423 | 37135 ft | 463 kts | 257° |
| 2026-05-07 17:33 | 48.43508 | -47.67382 | 37136 ft | 463 kts | 257° |
| 2026-05-07 17:33 | 48.41861 | -47.76745 | 37136 ft | 463 kts | 257° |
| 2026-05-07 17:34 | 48.40204 | -47.86118 | 37136 ft | 463 kts | 257° |
| 2026-05-07 17:34 | 48.38540 | -47.95476 | 37136 ft | 463 kts | 257° |
| 2026-05-07 17:35 | 48.36867 | -48.04838 | 37136 ft | 463 kts | 256° |
| 2026-05-07 17:35 | 48.35200 | -48.14117 | 37123 ft | 462 kts | 256° |
| 2026-05-07 17:36 | 48.33517 | -48.23441 | 37104 ft | 462 kts | 256° |
| 2026-05-07 17:36 | 48.31826 | -48.32760 | 37103 ft | 462 kts | 256° |
| 2026-05-07 17:37 | 48.30130 | -48.42057 | 37103 ft | 461 kts | 256° |
| 2026-05-07 17:37 | 48.28426 | -48.51351 | 37104 ft | 460 kts | 256° |
| 2026-05-07 17:38 | 48.26719 | -48.60613 | 37104 ft | 460 kts | 256° |
| 2026-05-07 17:38 | 48.25009 | -48.69852 | 37104 ft | 458 kts | 256° |
| 2026-05-07 17:39 | 48.23297 | -48.79047 | 37105 ft | 457 kts | 255° |
| 2026-05-07 17:39 | 48.21592 | -48.88167 | 37105 ft | 457 kts | 255° |
| 2026-05-07 17:40 | 48.19870 | -48.97327 | 37109 ft | 455 kts | 255° |
| 2026-05-07 17:40 | 48.19016 | -49.01902 | 37279 ft | 455 kts | 256° |
| 2026-05-07 17:40 | 48.18220 | -49.06468 | 37709 ft | 450 kts | 256° |
| 2026-05-07 17:41 | 48.17470 | -49.11002 | 38060 ft | 448 kts | 257° |
| 2026-05-07 17:41 | 48.16732 | -49.15554 | 38107 ft | 448 kts | 257° |
| 2026-05-07 17:41 | 48.15257 | -49.24625 | 38106 ft | 448 kts | 257° |
| 2026-05-07 17:42 | 48.13778 | -49.33661 | 38107 ft | 446 kts | 257° |
| 2026-05-07 17:42 | 48.12305 | -49.42619 | 38107 ft | 445 kts | 257° |
| 2026-05-07 17:43 | 48.10815 | -49.51626 | 38107 ft | 445 kts | 256° |
| 2026-05-07 17:43 | 48.09372 | -49.60634 | 38108 ft | 445 kts | 257° |
| 2026-05-07 17:44 | 48.08141 | -49.68120 | 38109 ft | 445 kts | 256° |
| 2026-05-07 17:44 | 48.06625 | -49.77096 | 38109 ft | 445 kts | 256° |
| 2026-05-07 17:45 | 48.05099 | -49.86087 | 38109 ft | 445 kts | 256° |
| 2026-05-07 17:45 | 48.03576 | -49.95063 | 38110 ft | 445 kts | 256° |
| 2026-05-07 17:46 | 48.02057 | -50.04042 | 38111 ft | 445 kts | 256° |
| 2026-05-07 17:46 | 48.00497 | -50.12998 | 38111 ft | 445 kts | 256° |
| 2026-05-07 17:47 | 47.98935 | -50.21891 | 38112 ft | 445 kts | 256° |
| 2026-05-07 17:47 | 47.97356 | -50.30831 | 38113 ft | 445 kts | 255° |
| 2026-05-07 17:48 | 47.95768 | -50.39776 | 38114 ft | 445 kts | 255° |
| 2026-05-07 17:48 | 47.94178 | -50.48695 | 38114 ft | 444 kts | 255° |
| 2026-05-07 17:49 | 47.92651 | -50.57577 | 38115 ft | 444 kts | 256° |
| 2026-05-07 17:49 | 47.91107 | -50.66513 | 38116 ft | 443 kts | 255° |
| 2026-05-07 17:50 | 47.89534 | -50.75411 | 38117 ft | 443 kts | 255° |
| 2026-05-07 17:50 | 47.87951 | -50.84266 | 38118 ft | 442 kts | 255° |
| 2026-05-07 17:51 | 47.86365 | -50.93086 | 38119 ft | 441 kts | 255° |
| 2026-05-07 17:51 | 47.84781 | -51.01842 | 38120 ft | 439 kts | 254° |
| 2026-05-07 17:52 | 47.83184 | -51.10629 | 38121 ft | 438 kts | 254° |
| 2026-05-07 17:52 | 47.81588 | -51.19365 | 38123 ft | 438 kts | 253° |
| 2026-05-07 17:53 | 47.79985 | -51.28100 | 38123 ft | 437 kts | 253° |
| 2026-05-07 17:53 | 47.78379 | -51.36810 | 38125 ft | 436 kts | 253° |
| 2026-05-07 17:54 | 47.76770 | -51.45492 | 38126 ft | 435 kts | 253° |
| 2026-05-07 17:54 | 47.75160 | -51.54147 | 38127 ft | 434 kts | 253° |
| 2026-05-07 17:55 | 47.73576 | -51.62741 | 38129 ft | 434 kts | 253° |
| 2026-05-07 17:55 | 47.71986 | -51.71372 | 38129 ft | 433 kts | 252° |
| 2026-05-07 17:56 | 47.70349 | -51.79971 | 38131 ft | 432 kts | 252° |
| 2026-05-07 17:56 | 47.68704 | -51.88557 | 38131 ft | 432 kts | 252° |
| 2026-05-07 17:57 | 47.67336 | -51.95679 | 38133 ft | 432 kts | 252° |
| 2026-05-07 17:57 | 47.65411 | -52.05703 | 38135 ft | 432 kts | 252° |
| 2026-05-07 17:58 | 47.63756 | -52.14254 | 38136 ft | 431 kts | 252° |
| 2026-05-07 17:58 | 47.62095 | -52.22742 | 38137 ft | 431 kts | 251° |
| 2026-05-07 17:59 | 47.60415 | -52.31272 | 38168 ft | 431 kts | 251° |
| 2026-05-07 17:59 | 47.58725 | -52.39804 | 38169 ft | 432 kts | 251° |
| 2026-05-07 18:00 | 47.57024 | -52.48348 | 38164 ft | 432 kts | 251° |
| 2026-05-07 18:00 | 47.55332 | -52.56892 | 38159 ft | 433 kts | 252° |
| 2026-05-07 18:01 | 47.53700 | -52.65471 | 38157 ft | 433 kts | 251° |
| 2026-05-07 18:01 | 47.52036 | -52.74023 | 38163 ft | 433 kts | 251° |
| 2026-05-07 18:02 | 47.49499 | -52.86836 | 38218 ft | 432 kts | 251° |
| 2026-05-07 18:03 | 47.47801 | -52.95326 | 38250 ft | 433 kts | 251° |
| 2026-05-07 18:03 | 47.46085 | -53.03860 | 38259 ft | 433 kts | 250° |
| 2026-05-07 18:04 | 47.44357 | -53.12412 | 38259 ft | 434 kts | 250° |
| 2026-05-07 18:04 | 47.42624 | -53.20943 | 38257 ft | 433 kts | 250° |
| 2026-05-07 18:05 | 47.40886 | -53.29467 | 38254 ft | 433 kts | 250° |
| 2026-05-07 18:05 | 47.39143 | -53.37976 | 38250 ft | 433 kts | 250° |
| 2026-05-07 18:06 | 47.37395 | -53.46470 | 38245 ft | 433 kts | 250° |
| 2026-05-07 18:06 | 47.35638 | -53.54978 | 38238 ft | 434 kts | 250° |
| 2026-05-07 18:07 | 47.33880 | -53.63452 | 38231 ft | 435 kts | 250° |
| 2026-05-07 18:07 | 47.32098 | -53.72006 | 38223 ft | 435 kts | 250° |
| 2026-05-07 18:08 | 47.30315 | -53.80525 | 38214 ft | 435 kts | 250° |
| 2026-05-07 18:08 | 47.28527 | -53.89037 | 38204 ft | 434 kts | 250° |
| 2026-05-07 18:09 | 47.26733 | -53.97536 | 38194 ft | 434 kts | 250° |
| 2026-05-07 18:09 | 47.24945 | -54.05973 | 38184 ft | 433 kts | 250° |
| 2026-05-07 18:10 | 47.23146 | -54.14432 | 38173 ft | 433 kts | 250° |
| 2026-05-07 18:10 | 47.21341 | -54.22879 | 38161 ft | 433 kts | 250° |
| 2026-05-07 18:11 | 47.19531 | -54.31318 | 38150 ft | 432 kts | 250° |
| 2026-05-07 18:11 | 47.17716 | -54.39746 | 38139 ft | 432 kts | 250° |
| 2026-05-07 18:12 | 47.15895 | -54.48168 | 38127 ft | 432 kts | 251° |
| 2026-05-07 18:12 | 47.14073 | -54.56556 | 38116 ft | 431 kts | 251° |
| 2026-05-07 18:13 | 47.12248 | -54.64929 | 38101 ft | 430 kts | 251° |
| 2026-05-07 18:13 | 47.10417 | -54.73290 | 38088 ft | 429 kts | 251° |
| 2026-05-07 18:14 | 47.08586 | -54.81623 | 38076 ft | 429 kts | 251° |
| 2026-05-07 18:14 | 47.06759 | -54.89904 | 37999 ft | 429 kts | 251° |
| 2026-05-07 18:15 | 47.04917 | -54.98214 | 37988 ft | 427 kts | 251° |
| 2026-05-07 18:15 | 47.03078 | -55.06484 | 37988 ft | 426 kts | 251° |
| 2026-05-07 18:16 | 47.01232 | -55.14751 | 37988 ft | 426 kts | 251° |
| 2026-05-07 18:16 | 46.99385 | -55.22991 | 37989 ft | 425 kts | 251° |
| 2026-05-07 18:17 | 46.97544 | -55.31173 | 37989 ft | 425 kts | 251° |
| 2026-05-07 18:17 | 46.95690 | -55.39381 | 37990 ft | 424 kts | 251° |
| 2026-05-07 18:18 | 46.93837 | -55.47553 | 37990 ft | 423 kts | 251° |
| 2026-05-07 18:18 | 46.91976 | -55.55725 | 37991 ft | 423 kts | 251° |
| 2026-05-07 18:19 | 46.90115 | -55.63873 | 37991 ft | 422 kts | 251° |
| 2026-05-07 18:19 | 46.88251 | -55.71997 | 37992 ft | 422 kts | 252° |
| 2026-05-07 18:20 | 46.86381 | -55.80120 | 37993 ft | 421 kts | 252° |
| 2026-05-07 18:20 | 46.84519 | -55.88179 | 37993 ft | 421 kts | 252° |
| 2026-05-07 18:21 | 46.82640 | -55.96277 | 37993 ft | 420 kts | 252° |
| 2026-05-07 18:21 | 46.80761 | -56.04346 | 37994 ft | 418 kts | 252° |
| 2026-05-07 18:22 | 46.78893 | -56.12341 | 37994 ft | 414 kts | 252° |
| 2026-05-07 18:22 | 46.77034 | -56.20267 | 37994 ft | 413 kts | 252° |
| 2026-05-07 18:23 | 46.75181 | -56.28137 | 37994 ft | 413 kts | 252° |
| 2026-05-07 18:23 | 46.73310 | -56.36059 | 37993 ft | 412 kts | 252° |
| 2026-05-07 18:24 | 46.71434 | -56.43970 | 37993 ft | 412 kts | 252° |
| 2026-05-07 18:24 | 46.69554 | -56.51869 | 37991 ft | 412 kts | 252° |
| 2026-05-07 18:25 | 46.67686 | -56.59694 | 37989 ft | 411 kts | 251° |
| 2026-05-07 18:25 | 46.65805 | -56.67542 | 37987 ft | 410 kts | 251° |
| 2026-05-07 18:26 | 46.63922 | -56.75368 | 37985 ft | 409 kts | 251° |
| 2026-05-07 18:26 | 46.62034 | -56.83193 | 37981 ft | 409 kts | 251° |
| 2026-05-07 18:27 | 46.60150 | -56.90972 | 37978 ft | 407 kts | 251° |
| 2026-05-07 18:27 | 46.58264 | -56.98732 | 37974 ft | 406 kts | 251° |
| 2026-05-07 18:28 | 46.56379 | -57.06459 | 37970 ft | 405 kts | 251° |
| 2026-05-07 18:28 | 46.54508 | -57.14104 | 37965 ft | 403 kts | 251° |
| 2026-05-07 18:29 | 46.52626 | -57.21770 | 37960 ft | 402 kts | 251° |
| 2026-05-07 18:29 | 46.50748 | -57.29390 | 37954 ft | 400 kts | 251° |
| 2026-05-07 18:30 | 46.48873 | -57.36973 | 37948 ft | 398 kts | 251° |
| 2026-05-07 18:30 | 46.47000 | -57.44521 | 37933 ft | 397 kts | 251° |
| 2026-05-07 18:31 | 46.45130 | -57.52036 | 37922 ft | 395 kts | 251° |
| 2026-05-07 18:31 | 46.43275 | -57.59463 | 37913 ft | 393 kts | 251° |
| 2026-05-07 18:32 | 46.41413 | -57.66897 | 37904 ft | 391 kts | 251° |
| 2026-05-07 18:32 | 46.39551 | -57.74304 | 37895 ft | 390 kts | 251° |
| 2026-05-07 18:33 | 46.38002 | -57.80448 | 37888 ft | 389 kts | 251° |
| 2026-05-07 18:33 | 46.36142 | -57.87806 | 37879 ft | 388 kts | 251° |
| 2026-05-07 18:34 | 46.34280 | -57.95147 | 37869 ft | 388 kts | 251° |
| 2026-05-07 18:34 | 46.32418 | -58.02464 | 37861 ft | 387 kts | 251° |
| 2026-05-07 18:35 | 46.30565 | -58.09722 | 37852 ft | 386 kts | 251° |
| 2026-05-07 18:35 | 46.28709 | -58.16967 | 37843 ft | 382 kts | 251° |
| 2026-05-07 18:36 | 46.26869 | -58.24133 | 37826 ft | 378 kts | 251° |
| 2026-05-07 18:36 | 46.25040 | -58.31231 | 37817 ft | 377 kts | 251° |
| 2026-05-07 18:37 | 46.23202 | -58.38339 | 37810 ft | 378 kts | 251° |
| 2026-05-07 18:37 | 46.21372 | -58.45400 | 37802 ft | 378 kts | 251° |
| 2026-05-07 18:38 | 46.19522 | -58.52513 | 37796 ft | 379 kts | 250° |
| 2026-05-07 18:38 | 46.17663 | -58.59637 | 37790 ft | 379 kts | 250° |
| 2026-05-07 18:39 | 46.15798 | -58.66768 | 37810 ft | 380 kts | 250° |
| 2026-05-07 18:39 | 46.13938 | -58.73853 | 37805 ft | 380 kts | 250° |
| 2026-05-07 18:40 | 46.12062 | -58.80980 | 37799 ft | 380 kts | 250° |
| 2026-05-07 18:40 | 46.10184 | -58.88094 | 37794 ft | 380 kts | 250° |
| 2026-05-07 18:41 | 46.08299 | -58.95208 | 37789 ft | 380 kts | 250° |
| 2026-05-07 18:41 | 46.06408 | -59.02327 | 37784 ft | 380 kts | 250° |
| 2026-05-07 18:42 | 46.04528 | -59.09382 | 37769 ft | 379 kts | 249° |
| 2026-05-07 18:42 | 46.02638 | -59.16457 | 37763 ft | 378 kts | 249° |
| 2026-05-07 18:43 | 46.00746 | -59.23514 | 37761 ft | 378 kts | 249° |
| 2026-05-07 18:43 | 45.98850 | -59.30563 | 37759 ft | 375 kts | 250° |
| 2026-05-07 18:44 | 45.96973 | -59.37522 | 37756 ft | 371 kts | 250° |
| 2026-05-07 18:44 | 45.95115 | -59.44396 | 37755 ft | 371 kts | 250° |
| 2026-05-07 18:45 | 45.93235 | -59.51329 | 37754 ft | 372 kts | 250° |
| 2026-05-07 18:45 | 45.91353 | -59.58246 | 37753 ft | 372 kts | 249° |
| 2026-05-07 18:46 | 45.89467 | -59.65161 | 37752 ft | 372 kts | 249° |
| 2026-05-07 18:46 | 45.87579 | -59.72063 | 37752 ft | 371 kts | 249° |
| 2026-05-07 18:47 | 45.85701 | -59.78907 | 37751 ft | 371 kts | 249° |
| 2026-05-07 18:47 | 45.83808 | -59.85786 | 37751 ft | 371 kts | 249° |
| 2026-05-07 18:48 | 45.81910 | -59.92665 | 37751 ft | 371 kts | 249° |
| 2026-05-07 18:48 | 45.80008 | -59.99539 | 37750 ft | 371 kts | 249° |
| 2026-05-07 18:49 | 45.78103 | -60.06404 | 37747 ft | 371 kts | 249° |
| 2026-05-07 18:49 | 45.76190 | -60.13279 | 37745 ft | 371 kts | 249° |
| 2026-05-07 18:50 | 45.74288 | -60.20094 | 37744 ft | 370 kts | 249° |
| 2026-05-07 18:50 | 45.72375 | -60.26928 | 37742 ft | 370 kts | 249° |
| 2026-05-07 18:51 | 45.70457 | -60.33760 | 37741 ft | 370 kts | 249° |
| 2026-05-07 18:51 | 45.68535 | -60.40589 | 37740 ft | 370 kts | 249° |
| 2026-05-07 18:52 | 45.66614 | -60.47397 | 37739 ft | 369 kts | 249° |
| 2026-05-07 18:52 | 45.64689 | -60.54199 | 37739 ft | 369 kts | 249° |
| 2026-05-07 18:53 | 45.62761 | -60.60991 | 37737 ft | 368 kts | 249° |
| 2026-05-07 18:53 | 45.60833 | -60.67765 | 37735 ft | 368 kts | 249° |
| 2026-05-07 18:54 | 45.58912 | -60.74497 | 37732 ft | 368 kts | 248° |
| 2026-05-07 18:54 | 45.56975 | -60.81263 | 37730 ft | 367 kts | 248° |
| 2026-05-07 18:55 | 45.55041 | -60.88005 | 37728 ft | 367 kts | 248° |
| 2026-05-07 18:55 | 45.53099 | -60.94754 | 37727 ft | 366 kts | 248° |
| 2026-05-07 18:56 | 45.51161 | -61.01472 | 37725 ft | 366 kts | 248° |
| 2026-05-07 18:56 | 45.49237 | -61.08119 | 37724 ft | 365 kts | 248° |
| 2026-05-07 18:57 | 45.47295 | -61.14815 | 37724 ft | 365 kts | 248° |
| 2026-05-07 18:57 | 45.45346 | -61.21515 | 37723 ft | 365 kts | 248° |
| 2026-05-07 18:58 | 45.43396 | -61.28199 | 37723 ft | 365 kts | 248° |
| 2026-05-07 18:58 | 45.41442 | -61.34881 | 37723 ft | 365 kts | 248° |
| 2026-05-07 18:59 | 45.39500 | -61.41506 | 37719 ft | 364 kts | 247° |
| 2026-05-07 18:59 | 45.37546 | -61.48149 | 37718 ft | 363 kts | 247° |
| 2026-05-07 19:00 | 45.35589 | -61.54788 | 37718 ft | 364 kts | 247° |
| 2026-05-07 19:00 | 45.33625 | -61.61434 | 37717 ft | 364 kts | 247° |
| 2026-05-07 19:01 | 45.31671 | -61.68026 | 37716 ft | 364 kts | 247° |
| 2026-05-07 19:01 | 45.29704 | -61.74645 | 37715 ft | 364 kts | 247° |
| 2026-05-07 19:02 | 45.27734 | -61.81259 | 37713 ft | 364 kts | 247° |
| 2026-05-07 19:02 | 45.25758 | -61.87873 | 37711 ft | 364 kts | 247° |
| 2026-05-07 19:03 | 45.23777 | -61.94487 | 37709 ft | 364 kts | 247° |
| 2026-05-07 19:03 | 45.21796 | -62.01082 | 37707 ft | 363 kts | 247° |
| 2026-05-07 19:04 | 45.19809 | -62.07686 | 37705 ft | 364 kts | 246° |
| 2026-05-07 19:04 | 45.17828 | -62.14248 | 37703 ft | 364 kts | 246° |
| 2026-05-07 19:05 | 45.15831 | -62.20845 | 37700 ft | 364 kts | 246° |
| 2026-05-07 19:05 | 45.13823 | -62.27464 | 37698 ft | 369 kts | 246° |
| 2026-05-07 19:06 | 45.11770 | -62.34209 | 37690 ft | 376 kts | 246° |
| 2026-05-07 19:06 | 45.08644 | -62.44449 | 37685 ft | 378 kts | 246° |
| 2026-05-07 19:07 | 45.06553 | -62.51277 | 37682 ft | 378 kts | 246° |
| 2026-05-07 19:07 | 45.04456 | -62.58107 | 37680 ft | 378 kts | 246° |
| 2026-05-07 19:08 | 45.02355 | -62.64927 | 37676 ft | 378 kts | 247° |
| 2026-05-07 19:08 | 45.00251 | -62.71743 | 37674 ft | 378 kts | 246° |
| 2026-05-07 19:09 | 44.98140 | -62.78565 | 37672 ft | 379 kts | 246° |
| 2026-05-07 19:09 | 44.96035 | -62.85346 | 37669 ft | 379 kts | 246° |
| 2026-05-07 19:10 | 44.93913 | -62.92164 | 37667 ft | 379 kts | 246° |
| 2026-05-07 19:10 | 44.91787 | -62.98979 | 37666 ft | 379 kts | 246° |
| 2026-05-07 19:11 | 44.89660 | -63.05775 | 37665 ft | 379 kts | 246° |
| 2026-05-07 19:11 | 44.87522 | -63.12591 | 37663 ft | 380 kts | 246° |
| 2026-05-07 19:12 | 44.85382 | -63.19397 | 37666 ft | 380 kts | 246° |
| 2026-05-07 19:12 | 44.83245 | -63.26173 | 37666 ft | 380 kts | 246° |
| 2026-05-07 19:13 | 44.81097 | -63.32968 | 37665 ft | 380 kts | 246° |
| 2026-05-07 19:13 | 44.78944 | -63.39759 | 37665 ft | 380 kts | 246° |
| 2026-05-07 19:14 | 44.76790 | -63.46537 | 37665 ft | 380 kts | 246° |
| 2026-05-07 19:14 | 44.74630 | -63.53315 | 37668 ft | 379 kts | 246° |
| 2026-05-07 19:15 | 44.72466 | -63.60089 | 37671 ft | 379 kts | 246° |
| 2026-05-07 19:15 | 44.70313 | -63.66811 | 37673 ft | 379 kts | 246° |
| 2026-05-07 19:16 | 44.68140 | -63.73578 | 37674 ft | 379 kts | 246° |
| 2026-05-07 19:16 | 44.65965 | -63.80333 | 37674 ft | 379 kts | 246° |
| 2026-05-07 19:17 | 44.63791 | -63.87067 | 37674 ft | 378 kts | 246° |
| 2026-05-07 19:17 | 44.61613 | -63.93797 | 37674 ft | 378 kts | 246° |
| 2026-05-07 19:18 | 44.59435 | -64.00510 | 37684 ft | 378 kts | 246° |
| 2026-05-07 19:18 | 44.57254 | -64.07218 | 37685 ft | 378 kts | 246° |
| 2026-05-07 19:19 | 44.55064 | -64.13933 | 37687 ft | 378 kts | 246° |
| 2026-05-07 19:19 | 44.52880 | -64.20610 | 37687 ft | 378 kts | 246° |
| 2026-05-07 19:20 | 44.50685 | -64.27308 | 37688 ft | 378 kts | 246° |
| 2026-05-07 19:20 | 44.48484 | -64.34008 | 37689 ft | 378 kts | 246° |
| 2026-05-07 19:21 | 44.46279 | -64.40698 | 37690 ft | 378 kts | 245° |
| 2026-05-07 19:21 | 44.44071 | -64.47384 | 37691 ft | 378 kts | 245° |
| 2026-05-07 19:22 | 44.41874 | -64.54020 | 37692 ft | 378 kts | 245° |
| 2026-05-07 19:22 | 44.40014 | -64.59624 | 37692 ft | 379 kts | 245° |
| 2026-05-07 19:23 | 44.37802 | -64.66275 | 37693 ft | 379 kts | 245° |
| 2026-05-07 19:23 | 44.35570 | -64.72968 | 37693 ft | 379 kts | 245° |
| 2026-05-07 19:24 | 44.33339 | -64.79642 | 37694 ft | 379 kts | 245° |
| 2026-05-07 19:24 | 44.31118 | -64.86267 | 37695 ft | 379 kts | 245° |
| 2026-05-07 19:25 | 44.28877 | -64.92938 | 37696 ft | 379 kts | 245° |
| 2026-05-07 19:25 | 44.26632 | -64.99605 | 37692 ft | 379 kts | 245° |
| 2026-05-07 19:26 | 44.24386 | -65.06258 | 37693 ft | 379 kts | 245° |
| 2026-05-07 19:26 | 44.22137 | -65.12902 | 37693 ft | 379 kts | 245° |
| 2026-05-07 19:27 | 44.19887 | -65.19532 | 37694 ft | 378 kts | 245° |
| 2026-05-07 19:27 | 44.17648 | -65.26113 | 37695 ft | 378 kts | 245° |
| 2026-05-07 19:28 | 44.15394 | -65.32723 | 37697 ft | 377 kts | 245° |
| 2026-05-07 19:28 | 44.13143 | -65.39312 | 37701 ft | 376 kts | 245° |
| 2026-05-07 19:29 | 44.10891 | -65.45883 | 37698 ft | 376 kts | 244° |
| 2026-05-07 19:29 | 44.08652 | -65.52402 | 37701 ft | 375 kts | 244° |
| 2026-05-07 19:30 | 44.06389 | -65.58972 | 37701 ft | 374 kts | 244° |
| 2026-05-07 19:30 | 44.04153 | -65.65452 | 37701 ft | 374 kts | 244° |
| 2026-05-07 19:31 | 44.01900 | -65.71963 | 37707 ft | 373 kts | 244° |
| 2026-05-07 19:31 | 43.99648 | -65.78458 | 37706 ft | 373 kts | 244° |
| 2026-05-07 19:32 | 43.97395 | -65.84936 | 37706 ft | 372 kts | 244° |
| 2026-05-07 19:32 | 43.95140 | -65.91407 | 37711 ft | 372 kts | 244° |
| 2026-05-07 19:33 | 43.92883 | -65.97865 | 37712 ft | 372 kts | 244° |
| 2026-05-07 19:33 | 43.90620 | -66.04329 | 37710 ft | 372 kts | 244° |
| 2026-05-07 19:34 | 43.88356 | -66.10784 | 37710 ft | 372 kts | 244° |
| 2026-05-07 19:34 | 43.86087 | -66.17239 | 37710 ft | 372 kts | 244° |
| 2026-05-07 19:35 | 43.83831 | -66.23636 | 37710 ft | 372 kts | 244° |
| 2026-05-07 19:35 | 43.81555 | -66.30074 | 37710 ft | 372 kts | 244° |
| 2026-05-07 19:36 | 43.79272 | -66.36516 | 37710 ft | 372 kts | 244° |
| 2026-05-07 19:36 | 43.76988 | -66.42951 | 37710 ft | 372 kts | 244° |
| 2026-05-07 19:37 | 43.74699 | -66.49380 | 37711 ft | 372 kts | 244° |
| 2026-05-07 19:37 | 43.72420 | -66.55769 | 37711 ft | 372 kts | 244° |
| 2026-05-07 19:38 | 43.70140 | -66.62197 | 37711 ft | 372 kts | 245° |
| 2026-05-07 19:38 | 43.67861 | -66.68635 | 37712 ft | 372 kts | 244° |
| 2026-05-07 19:39 | 43.65555 | -66.75040 | 37713 ft | 373 kts | 244° |
| 2026-05-07 19:39 | 43.63235 | -66.81446 | 37714 ft | 373 kts | 244° |
| 2026-05-07 19:40 | 43.60913 | -66.87847 | 37714 ft | 373 kts | 244° |
| 2026-05-07 19:40 | 43.58589 | -66.94246 | 37715 ft | 373 kts | 244° |
| 2026-05-07 19:41 | 43.56295 | -67.00609 | 37715 ft | 373 kts | 246° |
| 2026-05-07 19:41 | 43.54302 | -67.07221 | 37716 ft | 373 kts | 249° |
| 2026-05-07 19:42 | 43.52491 | -67.13924 | 37717 ft | 373 kts | 249° |
| 2026-05-07 19:42 | 43.50653 | -67.20614 | 37718 ft | 373 kts | 249° |
| 2026-05-07 19:43 | 43.48783 | -67.27289 | 37718 ft | 373 kts | 249° |
| 2026-05-07 19:43 | 43.46897 | -67.33955 | 37719 ft | 373 kts | 248° |
| 2026-05-07 19:44 | 43.45014 | -67.40571 | 37720 ft | 374 kts | 248° |
| 2026-05-07 19:44 | 43.43136 | -67.47242 | 37721 ft | 374 kts | 249° |
| 2026-05-07 19:45 | 43.41280 | -67.53933 | 37721 ft | 374 kts | 248° |
| 2026-05-07 19:45 | 43.39403 | -67.60598 | 37722 ft | 374 kts | 248° |
| 2026-05-07 19:46 | 43.37511 | -67.67261 | 37723 ft | 374 kts | 248° |
| 2026-05-07 19:46 | 43.35609 | -67.73917 | 37724 ft | 374 kts | 248° |
| 2026-05-07 19:47 | 43.33714 | -67.80525 | 37725 ft | 374 kts | 248° |
| 2026-05-07 19:47 | 43.31802 | -67.87173 | 37726 ft | 374 kts | 248° |
| 2026-05-07 19:48 | 43.29886 | -67.93814 | 37727 ft | 374 kts | 248° |
| 2026-05-07 19:48 | 43.27969 | -68.00445 | 37728 ft | 374 kts | 248° |
| 2026-05-07 19:49 | 43.26047 | -68.07070 | 37729 ft | 373 kts | 248° |
| 2026-05-07 19:49 | 43.24123 | -68.13684 | 37730 ft | 373 kts | 248° |
| 2026-05-07 19:50 | 43.22194 | -68.20300 | 37733 ft | 373 kts | 248° |
| 2026-05-07 19:50 | 43.20264 | -68.26902 | 37735 ft | 373 kts | 248° |
| 2026-05-07 19:51 | 43.18333 | -68.33489 | 37736 ft | 372 kts | 248° |
| 2026-05-07 19:51 | 43.16403 | -68.40058 | 37734 ft | 372 kts | 248° |
| 2026-05-07 19:52 | 43.14472 | -68.46613 | 37733 ft | 371 kts | 248° |
| 2026-05-07 19:52 | 43.12538 | -68.53159 | 37734 ft | 371 kts | 248° |
| 2026-05-07 19:53 | 43.10601 | -68.59699 | 37735 ft | 371 kts | 248° |
| 2026-05-07 19:53 | 43.08673 | -68.66194 | 37736 ft | 371 kts | 248° |
| 2026-05-07 19:54 | 43.06727 | -68.72732 | 37738 ft | 370 kts | 248° |
| 2026-05-07 19:54 | 43.04784 | -68.79243 | 37739 ft | 370 kts | 248° |
| 2026-05-07 19:55 | 43.02836 | -68.85755 | 37740 ft | 370 kts | 248° |
| 2026-05-07 19:55 | 43.00884 | -68.92263 | 37742 ft | 369 kts | 248° |
| 2026-05-07 19:56 | 42.98933 | -68.98753 | 37744 ft | 369 kts | 248° |
| 2026-05-07 19:56 | 42.96990 | -69.05198 | 37746 ft | 369 kts | 248° |
| 2026-05-07 19:57 | 42.95032 | -69.11677 | 37748 ft | 369 kts | 248° |
| 2026-05-07 19:57 | 42.93072 | -69.18149 | 37750 ft | 369 kts | 248° |
| 2026-05-07 19:58 | 42.91104 | -69.24628 | 37752 ft | 368 kts | 248° |
| 2026-05-07 19:58 | 42.89139 | -69.31084 | 37754 ft | 368 kts | 248° |
| 2026-05-07 19:59 | 42.87174 | -69.37525 | 37755 ft | 367 kts | 248° |
| 2026-05-07 19:59 | 42.85217 | -69.43919 | 37757 ft | 367 kts | 248° |
| 2026-05-07 20:00 | 42.83248 | -69.50340 | 37759 ft | 366 kts | 248° |
| 2026-05-07 20:00 | 42.81294 | -69.56697 | 37763 ft | 366 kts | 248° |
| 2026-05-07 20:01 | 42.79325 | -69.63086 | 37765 ft | 365 kts | 248° |
| 2026-05-07 20:01 | 42.77367 | -69.69453 | 37767 ft | 364 kts | 248° |
| 2026-05-07 20:02 | 42.75428 | -69.75826 | 37768 ft | 364 kts | 248° |
| 2026-05-07 20:02 | 42.73462 | -69.82154 | 37770 ft | 363 kts | 248° |
| 2026-05-07 20:03 | 42.71496 | -69.88436 | 37771 ft | 362 kts | 247° |
| 2026-05-07 20:03 | 42.69523 | -69.94722 | 37772 ft | 361 kts | 247° |
| 2026-05-07 20:04 | 42.67549 | -70.01003 | 37772 ft | 361 kts | 247° |
| 2026-05-07 20:04 | 42.65578 | -70.07277 | 37778 ft | 361 kts | 247° |
| 2026-05-07 20:05 | 42.63718 | -70.13625 | 37779 ft | 361 kts | 250° |
| 2026-05-07 20:05 | 42.62067 | -70.20090 | 37770 ft | 362 kts | 250° |
| 2026-05-07 20:06 | 42.60432 | -70.26496 | 37763 ft | 361 kts | 250° |
| 2026-05-07 20:06 | 42.58756 | -70.32936 | 37760 ft | 361 kts | 250° |
| 2026-05-07 20:07 | 42.57067 | -70.39367 | 37765 ft | 361 kts | 250° |
| 2026-05-07 20:07 | 42.55368 | -70.45791 | 37765 ft | 362 kts | 250° |
| 2026-05-07 20:08 | 42.53663 | -70.52218 | 37765 ft | 362 kts | 250° |
| 2026-05-07 20:08 | 42.52011 | -70.58630 | 37764 ft | 362 kts | 250° |
| 2026-05-07 20:09 | 42.50337 | -70.65075 | 37763 ft | 363 kts | 250° |
| 2026-05-07 20:10 | 42.47789 | -70.74743 | 37761 ft | 364 kts | 250° |
| 2026-05-07 20:10 | 42.46075 | -70.81198 | 37760 ft | 364 kts | 249° |
| 2026-05-07 20:11 | 42.44353 | -70.87656 | 37760 ft | 365 kts | 249° |
| 2026-05-07 20:11 | 42.42622 | -70.94125 | 37761 ft | 365 kts | 249° |
| 2026-05-07 20:12 | 42.40888 | -71.00590 | 37760 ft | 365 kts | 249° |
| 2026-05-07 20:12 | 42.39444 | -71.05959 | 37760 ft | 365 kts | 249° |
| 2026-05-07 20:13 | 42.37699 | -71.12430 | 37761 ft | 366 kts | 249° |
| 2026-05-07 20:13 | 42.35949 | -71.18905 | 37883 ft | 367 kts | 249° |
| 2026-05-07 20:13 | 42.35072 | -71.22143 | 38113 ft | 366 kts | 249° |
| 2026-05-07 20:14 | 42.34194 | -71.25377 | 38333 ft | 366 kts | 249° |
| 2026-05-07 20:14 | 42.33329 | -71.28564 | 38510 ft | 366 kts | 249° |
| 2026-05-07 20:14 | 42.32450 | -71.31794 | 38661 ft | 367 kts | 249° |
| 2026-05-07 20:14 | 42.31569 | -71.35031 | 38834 ft | 367 kts | 249° |
| 2026-05-07 20:15 | 42.30687 | -71.38263 | 39003 ft | 367 kts | 249° |
| 2026-05-07 20:15 | 42.29803 | -71.41504 | 39150 ft | 368 kts | 249° |
| 2026-05-07 20:15 | 42.28916 | -71.44749 | 39283 ft | 369 kts | 249° |
| 2026-05-07 20:15 | 42.28027 | -71.47994 | 39438 ft | 369 kts | 249° |
| 2026-05-07 20:16 | 42.27135 | -71.51249 | 39571 ft | 370 kts | 249° |
| 2026-05-07 20:16 | 42.26242 | -71.54504 | 39749 ft | 370 kts | 249° |
| 2026-05-07 20:16 | 42.25348 | -71.57754 | 39782 ft | 370 kts | 249° |
| 2026-05-07 20:17 | 42.23553 | -71.64273 | 39784 ft | 370 kts | 249° |
| 2026-05-07 20:17 | 42.21755 | -71.70787 | 39787 ft | 370 kts | 249° |
| 2026-05-07 20:18 | 42.19960 | -71.77272 | 39790 ft | 369 kts | 249° |
| 2026-05-07 20:18 | 42.18162 | -71.83751 | 39790 ft | 369 kts | 249° |
| 2026-05-07 20:19 | 42.16359 | -71.90230 | 39791 ft | 369 kts | 249° |
| 2026-05-07 20:19 | 42.14567 | -71.96654 | 39793 ft | 368 kts | 249° |
| 2026-05-07 20:20 | 42.12761 | -72.03110 | 39793 ft | 368 kts | 249° |
| 2026-05-07 20:20 | 42.10954 | -72.09557 | 39794 ft | 368 kts | 249° |
| 2026-05-07 20:21 | 42.09140 | -72.16010 | 39796 ft | 369 kts | 249° |
| 2026-05-07 20:21 | 42.07320 | -72.22469 | 39803 ft | 369 kts | 249° |
| 2026-05-07 20:22 | 42.05498 | -72.28934 | 39804 ft | 369 kts | 249° |
| 2026-05-07 20:22 | 42.03699 | -72.35415 | 39805 ft | 370 kts | 249° |
| 2026-05-07 20:23 | 42.01870 | -72.41852 | 39810 ft | 371 kts | 249° |
| 2026-05-07 20:23 | 42.00012 | -72.48339 | 39813 ft | 372 kts | 249° |
| 2026-05-07 20:24 | 41.98149 | -72.54822 | 39820 ft | 369 kts | 249° |
| 2026-05-07 20:24 | 41.96300 | -72.61251 | 39826 ft | 368 kts | 249° |
| 2026-05-07 20:25 | 41.94378 | -72.67595 | 39834 ft | 369 kts | 244° |
| 2026-05-07 20:25 | 41.91297 | -72.73195 | 39828 ft | 374 kts | 232° |
| 2026-05-07 20:26 | 41.87631 | -72.78097 | 39830 ft | 375 kts | 230° |
| 2026-05-07 20:26 | 41.83897 | -72.83005 | 39830 ft | 376 kts | 231° |
| 2026-05-07 20:27 | 41.80201 | -72.87977 | 39830 ft | 377 kts | 231° |
| 2026-05-07 20:27 | 41.76513 | -72.92979 | 39830 ft | 377 kts | 231° |
| 2026-05-07 20:28 | 41.72828 | -72.97986 | 39830 ft | 377 kts | 231° |
| 2026-05-07 20:28 | 41.69150 | -73.03000 | 39831 ft | 377 kts | 232° |
| 2026-05-07 20:29 | 41.65486 | -73.08044 | 39830 ft | 377 kts | 231° |
| 2026-05-07 20:29 | 41.61811 | -73.13060 | 39830 ft | 378 kts | 231° |
| 2026-05-07 20:30 | 41.58140 | -73.18048 | 39830 ft | 378 kts | 231° |
| 2026-05-07 20:30 | 41.54437 | -73.23067 | 39830 ft | 379 kts | 231° |
| 2026-05-07 20:31 | 41.50730 | -73.28089 | 39830 ft | 379 kts | 231° |
| 2026-05-07 20:31 | 41.47037 | -73.33122 | 39830 ft | 379 kts | 231° |
| 2026-05-07 20:32 | 41.43319 | -73.38129 | 39829 ft | 379 kts | 231° |
| 2026-05-07 20:32 | 41.39624 | -73.43084 | 39829 ft | 379 kts | 231° |
| 2026-05-07 20:33 | 41.35898 | -73.48072 | 39830 ft | 380 kts | 231° |
| 2026-05-07 20:33 | 41.32175 | -73.53052 | 39830 ft | 380 kts | 231° |
| 2026-05-07 20:34 | 41.28458 | -73.58030 | 39829 ft | 378 kts | 232° |
| 2026-05-07 20:34 | 41.25072 | -73.63370 | 39829 ft | 377 kts | 237° |
| 2026-05-07 20:35 | 41.21877 | -73.68880 | 39829 ft | 376 kts | 236° |
| 2026-05-07 20:35 | 41.18590 | -73.74296 | 39830 ft | 376 kts | 236° |
| 2026-05-07 20:36 | 41.15306 | -73.79688 | 39830 ft | 375 kts | 236° |
| 2026-05-07 20:36 | 41.12080 | -73.85075 | 39831 ft | 375 kts | 236° |
| 2026-05-07 20:37 | 41.08837 | -73.90498 | 39831 ft | 374 kts | 236° |
| 2026-05-07 20:37 | 41.05602 | -73.95891 | 39830 ft | 373 kts | 236° |
| 2026-05-07 20:38 | 41.02371 | -74.01269 | 39836 ft | 373 kts | 236° |
| 2026-05-07 20:38 | 40.99131 | -74.06660 | 39834 ft | 374 kts | 236° |
| 2026-05-07 20:39 | 40.95929 | -74.12094 | 39834 ft | 374 kts | 236° |
| 2026-05-07 20:39 | 40.92697 | -74.17479 | 39835 ft | 373 kts | 236° |
| 2026-05-07 20:40 | 40.89462 | -74.22827 | 39838 ft | 372 kts | 236° |
| 2026-05-07 20:40 | 40.86216 | -74.28179 | 39840 ft | 372 kts | 236° |
| 2026-05-07 20:41 | 40.82980 | -74.33509 | 39842 ft | 371 kts | 236° |
| 2026-05-07 20:41 | 40.79770 | -74.38794 | 39848 ft | 371 kts | 236° |
| 2026-05-07 20:42 | 40.76568 | -74.44133 | 39850 ft | 370 kts | 236° |
| 2026-05-07 20:42 | 40.73368 | -74.49449 | 39847 ft | 370 kts | 236° |
| 2026-05-07 20:43 | 40.70155 | -74.54745 | 39839 ft | 370 kts | 236° |
| 2026-05-07 20:43 | 40.66930 | -74.60044 | 39830 ft | 370 kts | 236° |
| 2026-05-07 20:44 | 40.63704 | -74.65337 | 39822 ft | 370 kts | 236° |
| 2026-05-07 20:44 | 40.60486 | -74.70613 | 39820 ft | 369 kts | 236° |
| 2026-05-07 20:45 | 40.57242 | -74.75865 | 39823 ft | 370 kts | 234° |
| 2026-05-07 20:45 | 40.53764 | -74.80806 | 39829 ft | 371 kts | 232° |
| 2026-05-07 20:46 | 40.50201 | -74.85730 | 39835 ft | 371 kts | 233° |
| 2026-05-07 20:46 | 40.46676 | -74.90698 | 39837 ft | 371 kts | 233° |
| 2026-05-07 20:47 | 40.43156 | -74.95665 | 39838 ft | 371 kts | 233° |
| 2026-05-07 20:47 | 40.39634 | -75.00624 | 39840 ft | 371 kts | 233° |
| 2026-05-07 20:48 | 40.36126 | -75.05535 | 39841 ft | 371 kts | 233° |
| 2026-05-07 20:48 | 40.32617 | -75.10505 | 39840 ft | 371 kts | 233° |
| 2026-05-07 20:49 | 40.29095 | -75.15453 | 39841 ft | 371 kts | 233° |
| 2026-05-07 20:49 | 40.25556 | -75.20390 | 39845 ft | 371 kts | 232° |
| 2026-05-07 20:50 | 40.22020 | -75.25310 | 39848 ft | 371 kts | 232° |
| 2026-05-07 20:50 | 40.18498 | -75.30203 | 39849 ft | 371 kts | 232° |
| 2026-05-07 20:51 | 40.14936 | -75.35148 | 39850 ft | 371 kts | 232° |
| 2026-05-07 20:51 | 40.11432 | -75.40034 | 39852 ft | 371 kts | 232° |
| 2026-05-07 20:52 | 40.07894 | -75.44957 | 39854 ft | 370 kts | 232° |
| 2026-05-07 20:52 | 40.04354 | -75.49842 | 39855 ft | 370 kts | 232° |
| 2026-05-07 20:53 | 40.00815 | -75.54712 | 39856 ft | 370 kts | 232° |
| 2026-05-07 20:53 | 39.97268 | -75.59588 | 39858 ft | 369 kts | 232° |
| 2026-05-07 20:54 | 39.93764 | -75.64400 | 39860 ft | 368 kts | 232° |
| 2026-05-07 20:54 | 39.90299 | -75.69316 | 39860 ft | 367 kts | 236° |
| 2026-05-07 20:55 | 39.87145 | -75.74532 | 39859 ft | 367 kts | 236° |
| 2026-05-07 20:55 | 39.83985 | -75.79608 | 39859 ft | 366 kts | 235° |
| 2026-05-07 20:56 | 39.80758 | -75.84746 | 39859 ft | 366 kts | 236° |
| 2026-05-07 20:56 | 39.77571 | -75.89888 | 39858 ft | 366 kts | 236° |
| 2026-05-07 20:57 | 39.74350 | -75.95022 | 39858 ft | 367 kts | 235° |
| 2026-05-07 20:57 | 39.71117 | -76.00146 | 39856 ft | 367 kts | 235° |
| 2026-05-07 20:58 | 39.67876 | -76.05273 | 39854 ft | 367 kts | 235° |
| 2026-05-07 20:58 | 39.64632 | -76.10399 | 39852 ft | 368 kts | 235° |
| 2026-05-07 20:59 | 39.61379 | -76.15535 | 39851 ft | 368 kts | 236° |
| 2026-05-07 20:59 | 39.58129 | -76.20622 | 39851 ft | 368 kts | 235° |
| 2026-05-07 21:00 | 39.54810 | -76.25683 | 39851 ft | 368 kts | 235° |
| 2026-05-07 21:00 | 39.52051 | -76.29887 | 39856 ft | 369 kts | 235° |
| 2026-05-07 21:01 | 39.48724 | -76.34957 | 39863 ft | 369 kts | 235° |
| 2026-05-07 21:01 | 39.45377 | -76.39994 | 39877 ft | 369 kts | 233° |
| 2026-05-07 21:02 | 39.41778 | -76.44763 | 39889 ft | 371 kts | 231° |
| 2026-05-07 21:02 | 39.38085 | -76.49452 | 39893 ft | 372 kts | 231° |
| 2026-05-07 21:03 | 39.34425 | -76.54169 | 39893 ft | 372 kts | 231° |
| 2026-05-07 21:03 | 39.30773 | -76.58907 | 39891 ft | 372 kts | 231° |
| 2026-05-07 21:04 | 39.27122 | -76.63649 | 39890 ft | 372 kts | 231° |
| 2026-05-07 21:04 | 39.23471 | -76.68391 | 39878 ft | 373 kts | 232° |
| 2026-05-07 21:05 | 39.19872 | -76.73143 | 39862 ft | 372 kts | 232° |
| 2026-05-07 21:05 | 39.16236 | -76.77901 | 39863 ft | 372 kts | 232° |
| 2026-05-07 21:06 | 39.12578 | -76.82634 | 39880 ft | 373 kts | 231° |
| 2026-05-07 21:06 | 39.08910 | -76.87366 | 39882 ft | 373 kts | 231° |
| 2026-05-07 21:07 | 39.05242 | -76.92092 | 39882 ft | 373 kts | 231° |
| 2026-05-07 21:07 | 39.01570 | -76.96819 | 39880 ft | 373 kts | 232° |
| 2026-05-07 21:08 | 38.97931 | -77.01503 | 39880 ft | 373 kts | 232° |
| 2026-05-07 21:08 | 38.94263 | -77.06242 | 39877 ft | 373 kts | 232° |
| 2026-05-07 21:09 | 38.90591 | -77.10981 | 39876 ft | 373 kts | 232° |
| 2026-05-07 21:09 | 38.86915 | -77.15687 | 39874 ft | 373 kts | 232° |
| 2026-05-07 21:10 | 38.83233 | -77.20387 | 39867 ft | 373 kts | 232° |
| 2026-05-07 21:10 | 38.79569 | -77.25059 | 39861 ft | 373 kts | 232° |
| 2026-05-07 21:11 | 38.75889 | -77.29746 | 39860 ft | 373 kts | 232° |
| 2026-05-07 21:11 | 38.70304 | -77.36698 | 39871 ft | 373 kts | 230° |
| 2026-05-07 21:12 | 38.66417 | -77.41117 | 39878 ft | 374 kts | 229° |
| 2026-05-07 21:12 | 38.62545 | -77.45517 | 39881 ft | 374 kts | 230° |
| 2026-05-07 21:13 | 38.58659 | -77.49964 | 39883 ft | 374 kts | 230° |
| 2026-05-07 21:13 | 38.54797 | -77.54391 | 39888 ft | 373 kts | 230° |
| 2026-05-07 21:14 | 38.50931 | -77.58822 | 39888 ft | 373 kts | 230° |
| 2026-05-07 21:14 | 38.47077 | -77.63243 | 39889 ft | 372 kts | 230° |
| 2026-05-07 21:15 | 38.43263 | -77.67662 | 39890 ft | 372 kts | 230° |
| 2026-05-07 21:15 | 38.39427 | -77.72074 | 39890 ft | 372 kts | 230° |
| 2026-05-07 21:16 | 38.35583 | -77.76477 | 39897 ft | 371 kts | 230° |
| 2026-05-07 21:16 | 38.31727 | -77.80883 | 39898 ft | 371 kts | 230° |
| 2026-05-07 21:17 | 38.27883 | -77.85267 | 39901 ft | 371 kts | 230° |
| 2026-05-07 21:17 | 38.24052 | -77.89652 | 39902 ft | 370 kts | 230° |
| 2026-05-07 21:18 | 38.20220 | -77.94031 | 39905 ft | 370 kts | 230° |
| 2026-05-07 21:18 | 38.16403 | -77.98360 | 39905 ft | 370 kts | 230° |
| 2026-05-07 21:19 | 38.12561 | -78.02704 | 39908 ft | 370 kts | 230° |
| 2026-05-07 21:19 | 38.08715 | -78.07047 | 39908 ft | 370 kts | 230° |
| 2026-05-07 21:20 | 38.04867 | -78.11388 | 39908 ft | 370 kts | 230° |
| 2026-05-07 21:20 | 38.01010 | -78.15726 | 39908 ft | 371 kts | 229° |
| 2026-05-07 21:21 | 37.96942 | -78.19785 | 39901 ft | 373 kts | 226° |
| 2026-05-07 21:21 | 37.92745 | -78.23669 | 39898 ft | 373 kts | 226° |
| 2026-05-07 21:22 | 37.88561 | -78.27581 | 39898 ft | 374 kts | 227° |
| 2026-05-07 21:22 | 37.84418 | -78.31489 | 39899 ft | 374 kts | 227° |
| 2026-05-07 21:23 | 37.80255 | -78.35427 | 39900 ft | 374 kts | 227° |
| 2026-05-07 21:23 | 37.76084 | -78.39371 | 39901 ft | 374 kts | 226° |
| 2026-05-07 21:24 | 37.71921 | -78.43330 | 39903 ft | 374 kts | 226° |
| 2026-05-07 21:24 | 37.67794 | -78.47267 | 39902 ft | 374 kts | 226° |
| 2026-05-07 21:25 | 37.63631 | -78.51215 | 39903 ft | 374 kts | 226° |
| 2026-05-07 21:25 | 37.59454 | -78.55164 | 39905 ft | 375 kts | 226° |
| 2026-05-07 21:26 | 37.55267 | -78.59114 | 39907 ft | 376 kts | 226° |
| 2026-05-07 21:26 | 37.51075 | -78.63063 | 39908 ft | 376 kts | 226° |
| 2026-05-07 21:27 | 37.46913 | -78.66978 | 39909 ft | 376 kts | 226° |
| 2026-05-07 21:27 | 37.42724 | -78.70912 | 39911 ft | 376 kts | 226° |
| 2026-05-07 21:28 | 37.38536 | -78.74848 | 39913 ft | 376 kts | 226° |
| 2026-05-07 21:28 | 37.34345 | -78.78798 | 39916 ft | 376 kts | 226° |
| 2026-05-07 21:29 | 37.30130 | -78.82737 | 39920 ft | 377 kts | 226° |
| 2026-05-07 21:29 | 37.25919 | -78.86661 | 39922 ft | 377 kts | 226° |
| 2026-05-07 21:30 | 37.21708 | -78.90577 | 39925 ft | 377 kts | 226° |
| 2026-05-07 21:30 | 37.17518 | -78.94472 | 39928 ft | 377 kts | 226° |
| 2026-05-07 21:31 | 37.13295 | -78.98396 | 39929 ft | 378 kts | 226° |
| 2026-05-07 21:31 | 37.09066 | -79.02314 | 39930 ft | 378 kts | 226° |
| 2026-05-07 21:32 | 37.04821 | -79.06237 | 39928 ft | 379 kts | 226° |
| 2026-05-07 21:32 | 37.00580 | -79.10150 | 39927 ft | 378 kts | 226° |
| 2026-05-07 21:33 | 36.96339 | -79.14058 | 39926 ft | 379 kts | 226° |
| 2026-05-07 21:33 | 36.92115 | -79.17945 | 39925 ft | 379 kts | 226° |
| 2026-05-07 21:34 | 36.87861 | -79.21855 | 39925 ft | 379 kts | 226° |
| 2026-05-07 21:34 | 36.83615 | -79.25777 | 39925 ft | 379 kts | 226° |
| 2026-05-07 21:35 | 36.79375 | -79.29701 | 39923 ft | 380 kts | 226° |
| 2026-05-07 21:35 | 36.75120 | -79.33616 | 39921 ft | 380 kts | 226° |
| 2026-05-07 21:36 | 36.70856 | -79.37527 | 39919 ft | 380 kts | 226° |
| 2026-05-07 21:36 | 36.66622 | -79.41404 | 39920 ft | 380 kts | 226° |
| 2026-05-07 21:37 | 36.62355 | -79.45304 | 39921 ft | 381 kts | 226° |
| 2026-05-07 21:37 | 36.58081 | -79.49205 | 39922 ft | 381 kts | 226° |
| 2026-05-07 21:38 | 36.53799 | -79.53108 | 39922 ft | 381 kts | 226° |
| 2026-05-07 21:38 | 36.49553 | -79.56986 | 39923 ft | 381 kts | 226° |
| 2026-05-07 21:39 | 36.45274 | -79.60894 | 39925 ft | 382 kts | 226° |
| 2026-05-07 21:39 | 36.40982 | -79.64786 | 39923 ft | 382 kts | 226° |
| 2026-05-07 21:40 | 36.36674 | -79.68681 | 39922 ft | 383 kts | 226° |
| 2026-05-07 21:40 | 36.32372 | -79.72567 | 39921 ft | 383 kts | 226° |
| 2026-05-07 21:41 | 36.28061 | -79.76457 | 39919 ft | 383 kts | 226° |
| 2026-05-07 21:41 | 36.23787 | -79.80318 | 39914 ft | 382 kts | 226° |
| 2026-05-07 21:42 | 36.19479 | -79.84221 | 39909 ft | 383 kts | 226° |
| 2026-05-07 21:42 | 36.15165 | -79.88106 | 39904 ft | 383 kts | 226° |
| 2026-05-07 21:43 | 36.10847 | -79.91988 | 39901 ft | 383 kts | 226° |
| 2026-05-07 21:43 | 36.06529 | -79.95865 | 39900 ft | 384 kts | 225° |
| 2026-05-07 21:44 | 36.01818 | -79.99169 | 39901 ft | 393 kts | 216° |
| 2026-05-07 21:44 | 35.96763 | -80.01746 | 39902 ft | 397 kts | 213° |
| 2026-05-07 21:45 | 35.91569 | -80.04156 | 39904 ft | 399 kts | 213° |
| 2026-05-07 21:45 | 35.86381 | -80.06633 | 39905 ft | 400 kts | 214° |
| 2026-05-07 21:46 | 35.81205 | -80.09148 | 39905 ft | 399 kts | 214° |
| 2026-05-07 21:46 | 35.76037 | -80.11673 | 39905 ft | 399 kts | 214° |
| 2026-05-07 21:47 | 35.70874 | -80.14210 | 39905 ft | 399 kts | 214° |
| 2026-05-07 21:47 | 35.65721 | -80.16753 | 39897 ft | 399 kts | 214° |
| 2026-05-07 21:48 | 35.60591 | -80.19273 | 39906 ft | 399 kts | 214° |
| 2026-05-07 21:48 | 35.55420 | -80.21806 | 39910 ft | 400 kts | 214° |
| 2026-05-07 21:49 | 35.50236 | -80.24341 | 39913 ft | 402 kts | 214° |
| 2026-05-07 21:49 | 35.45039 | -80.26878 | 39912 ft | 402 kts | 214° |
| 2026-05-07 21:50 | 35.40711 | -80.28987 | 39910 ft | 402 kts | 214° |
| 2026-05-07 21:50 | 35.35507 | -80.31521 | 39900 ft | 403 kts | 214° |
| 2026-05-07 21:51 | 35.30293 | -80.34056 | 39888 ft | 403 kts | 214° |
| 2026-05-07 21:51 | 35.25058 | -80.36597 | 39870 ft | 404 kts | 214° |
| 2026-05-07 21:52 | 35.19819 | -80.39137 | 39857 ft | 405 kts | 214° |
| 2026-05-07 21:52 | 35.14609 | -80.41660 | 39847 ft | 406 kts | 213° |
| 2026-05-07 21:53 | 35.09353 | -80.44201 | 39838 ft | 406 kts | 213° |
| 2026-05-07 21:53 | 35.04081 | -80.46747 | 39831 ft | 408 kts | 213° |
| 2026-05-07 21:54 | 34.98797 | -80.49294 | 39824 ft | 409 kts | 213° |
| 2026-05-07 21:54 | 34.93496 | -80.51852 | 39822 ft | 409 kts | 213° |
| 2026-05-07 21:55 | 34.88196 | -80.54411 | 39823 ft | 410 kts | 213° |
| 2026-05-07 21:55 | 34.82893 | -80.56955 | 39826 ft | 410 kts | 213° |
| 2026-05-07 21:56 | 34.77615 | -80.59481 | 39831 ft | 410 kts | 213° |
| 2026-05-07 21:56 | 34.72287 | -80.62028 | 39834 ft | 411 kts | 213° |
| 2026-05-07 21:57 | 34.66960 | -80.64583 | 39837 ft | 409 kts | 215° |
| 2026-05-07 21:57 | 34.62201 | -80.68084 | 39841 ft | 395 kts | 229° |
| 2026-05-07 21:58 | 34.58120 | -80.72530 | 39841 ft | 392 kts | 232° |
| 2026-05-07 21:58 | 34.54140 | -80.77032 | 39842 ft | 390 kts | 231° |
| 2026-05-07 21:59 | 34.50121 | -80.81465 | 39844 ft | 391 kts | 230° |
| 2026-05-07 21:59 | 34.46092 | -80.85833 | 39847 ft | 391 kts | 230° |
| 2026-05-07 22:00 | 34.42025 | -80.90226 | 39851 ft | 392 kts | 230° |
| 2026-05-07 22:00 | 34.37953 | -80.94619 | 39853 ft | 392 kts | 230° |
| 2026-05-07 22:01 | 34.33882 | -80.99007 | 39856 ft | 392 kts | 230° |
| 2026-05-07 22:01 | 34.29335 | -81.02794 | 39862 ft | 405 kts | 215° |
| 2026-05-07 22:02 | 34.23983 | -81.05047 | 39860 ft | 414 kts | 208° |
| 2026-05-07 22:02 | 34.18393 | -81.06966 | 39861 ft | 420 kts | 208° |
| 2026-05-07 22:03 | 34.12792 | -81.09010 | 39863 ft | 420 kts | 209° |
| 2026-05-07 22:03 | 34.07213 | -81.11117 | 39864 ft | 419 kts | 210° |
| 2026-05-07 22:04 | 34.01655 | -81.13233 | 39862 ft | 418 kts | 210° |
| 2026-05-07 22:04 | 33.96107 | -81.15358 | 39861 ft | 419 kts | 209° |
| 2026-05-07 22:05 | 33.90511 | -81.17505 | 39861 ft | 424 kts | 209° |
| 2026-05-07 22:05 | 33.84874 | -81.19659 | 39859 ft | 426 kts | 209° |
| 2026-05-07 22:06 | 33.79259 | -81.21799 | 39855 ft | 426 kts | 209° |
| 2026-05-07 22:06 | 33.73621 | -81.23945 | 39857 ft | 425 kts | 209° |
| 2026-05-07 22:07 | 33.67984 | -81.26087 | 39858 ft | 425 kts | 209° |
| 2026-05-07 22:07 | 33.62347 | -81.28227 | 39861 ft | 425 kts | 209° |
| 2026-05-07 22:08 | 33.56704 | -81.30372 | 39869 ft | 425 kts | 209° |
| 2026-05-07 22:08 | 33.51059 | -81.32514 | 39875 ft | 425 kts | 209° |
| 2026-05-07 22:09 | 33.45399 | -81.34650 | 39883 ft | 426 kts | 209° |
| 2026-05-07 22:09 | 33.39753 | -81.36777 | 39890 ft | 426 kts | 209° |
| 2026-05-07 22:10 | 33.34134 | -81.38892 | 39896 ft | 426 kts | 208° |
| 2026-05-07 22:10 | 33.28470 | -81.41022 | 39899 ft | 427 kts | 209° |
| 2026-05-07 22:11 | 33.22850 | -81.43317 | 39900 ft | 426 kts | 211° |
| 2026-05-07 22:11 | 33.17288 | -81.45773 | 39900 ft | 426 kts | 211° |
| 2026-05-07 22:12 | 33.11739 | -81.48162 | 39900 ft | 426 kts | 211° |
| 2026-05-07 22:12 | 33.06137 | -81.50550 | 39900 ft | 427 kts | 210° |
| 2026-05-07 22:13 | 33.00537 | -81.52932 | 39901 ft | 428 kts | 210° |
| 2026-05-07 22:13 | 32.94916 | -81.55321 | 39902 ft | 430 kts | 210° |
| 2026-05-07 22:14 | 32.89272 | -81.57736 | 39906 ft | 430 kts | 211° |
| 2026-05-07 22:14 | 32.83710 | -81.60265 | 39909 ft | 431 kts | 211° |
| 2026-05-07 22:15 | 32.78106 | -81.62814 | 39912 ft | 432 kts | 211° |
| 2026-05-07 22:15 | 32.72485 | -81.65357 | 39915 ft | 433 kts | 211° |
| 2026-05-07 22:16 | 32.66844 | -81.67901 | 39916 ft | 433 kts | 211° |
| 2026-05-07 22:16 | 32.61203 | -81.70442 | 39913 ft | 434 kts | 211° |
| 2026-05-07 22:17 | 32.55592 | -81.72979 | 39901 ft | 435 kts | 211° |
| 2026-05-07 22:17 | 32.49928 | -81.75536 | 39892 ft | 436 kts | 211° |
| 2026-05-07 22:18 | 32.41427 | -81.79366 | 39892 ft | 436 kts | 211° |
| 2026-05-07 22:19 | 32.35753 | -81.81913 | 39901 ft | 436 kts | 211° |
| 2026-05-07 22:19 | 32.30097 | -81.84442 | 39912 ft | 437 kts | 211° |
| 2026-05-07 22:20 | 32.24404 | -81.86983 | 39918 ft | 438 kts | 211° |
| 2026-05-07 22:20 | 32.18695 | -81.89529 | 39920 ft | 439 kts | 210° |
| 2026-05-07 22:21 | 32.12976 | -81.92061 | 39920 ft | 439 kts | 209° |
| 2026-05-07 22:21 | 32.07122 | -81.94253 | 39922 ft | 442 kts | 207° |
| 2026-05-07 22:22 | 32.01241 | -81.96379 | 39925 ft | 442 kts | 207° |
| 2026-05-07 22:22 | 31.95409 | -81.98551 | 39927 ft | 443 kts | 207° |
| 2026-05-07 22:23 | 31.89535 | -82.00742 | 39934 ft | 443 kts | 207° |
| 2026-05-07 22:23 | 31.83604 | -82.02776 | 39938 ft | 445 kts | 204° |
| 2026-05-07 22:24 | 31.77507 | -82.04291 | 39943 ft | 449 kts | 201° |
| 2026-05-07 22:24 | 31.71366 | -82.05725 | 39947 ft | 450 kts | 202° |
| 2026-05-07 22:25 | 31.65215 | -82.07231 | 39950 ft | 451 kts | 202° |
| 2026-05-07 22:25 | 31.59078 | -82.08760 | 39953 ft | 451 kts | 202° |
| 2026-05-07 22:26 | 31.52982 | -82.10286 | 39955 ft | 450 kts | 202° |
| 2026-05-07 22:26 | 31.46843 | -82.11835 | 39958 ft | 450 kts | 202° |
| 2026-05-07 22:27 | 31.40718 | -82.13373 | 39958 ft | 451 kts | 202° |
| 2026-05-07 22:27 | 31.34572 | -82.14913 | 39958 ft | 452 kts | 202° |
| 2026-05-07 22:28 | 31.28412 | -82.16454 | 39958 ft | 453 kts | 202° |
| 2026-05-07 22:28 | 31.22239 | -82.17995 | 39959 ft | 453 kts | 201° |
| 2026-05-07 22:29 | 31.16065 | -82.19535 | 39960 ft | 454 kts | 201° |
| 2026-05-07 22:29 | 31.09888 | -82.21073 | 39961 ft | 454 kts | 201° |
| 2026-05-07 22:30 | 31.03694 | -82.22614 | 39960 ft | 456 kts | 201° |
| 2026-05-07 22:30 | 30.97527 | -82.24148 | 39960 ft | 456 kts | 201° |
| 2026-05-07 22:31 | 30.91298 | -82.25698 | 39959 ft | 457 kts | 201° |
| 2026-05-07 22:31 | 30.85063 | -82.27241 | 39960 ft | 458 kts | 201° |
| 2026-05-07 22:32 | 30.78817 | -82.28784 | 39959 ft | 459 kts | 201° |
| 2026-05-07 22:32 | 30.72570 | -82.30326 | 39959 ft | 459 kts | 201° |
| 2026-05-07 22:33 | 30.66310 | -82.31842 | 39958 ft | 461 kts | 199° |
| 2026-05-07 22:33 | 30.59915 | -82.32784 | 39962 ft | 466 kts | 194° |
| 2026-05-07 22:34 | 30.53451 | -82.33449 | 39961 ft | 467 kts | 194° |
| 2026-05-07 22:34 | 30.47004 | -82.34219 | 39958 ft | 469 kts | 194° |
| 2026-05-07 22:35 | 30.40578 | -82.35023 | 39914 ft | 456 kts | 195° |
| 2026-05-07 22:35 | 30.37441 | -82.35415 | 39583 ft | 450 kts | 195° |
| 2026-05-07 22:35 | 30.34315 | -82.35806 | 38862 ft | 453 kts | 194° |
| 2026-05-07 22:35 | 30.31165 | -82.36199 | 38179 ft | 456 kts | 194° |
| 2026-05-07 22:36 | 30.28028 | -82.36591 | 37718 ft | 452 kts | 194° |
| 2026-05-07 22:36 | 30.24903 | -82.36981 | 37263 ft | 449 kts | 194° |
| 2026-05-07 22:36 | 30.21815 | -82.37366 | 36821 ft | 445 kts | 194° |
| 2026-05-07 22:36 | 30.18748 | -82.37747 | 36388 ft | 441 kts | 194° |
| 2026-05-07 22:37 | 30.15674 | -82.37965 | 35960 ft | 443 kts | 189° |
| 2026-05-07 22:37 | 30.12592 | -82.37934 | 35524 ft | 443 kts | 187° |
| 2026-05-07 22:37 | 30.09551 | -82.37754 | 35090 ft | 441 kts | 185° |
| 2026-05-07 22:37 | 30.06496 | -82.37500 | 34656 ft | 438 kts | 185° |
| 2026-05-07 22:38 | 30.03479 | -82.37261 | 34273 ft | 430 kts | 185° |
| 2026-05-07 22:38 | 30.00525 | -82.37058 | 33883 ft | 422 kts | 186° |
| 2026-05-07 22:38 | 29.97606 | -82.36880 | 33334 ft | 417 kts | 186° |
| 2026-05-07 22:38 | 29.94717 | -82.36713 | 32675 ft | 415 kts | 186° |
| 2026-05-07 22:39 | 29.92808 | -82.36604 | 32262 ft | 413 kts | 186° |
| 2026-05-07 22:39 | 29.89957 | -82.36442 | 31659 ft | 409 kts | 186° |
| 2026-05-07 22:39 | 29.87142 | -82.36283 | 31265 ft | 400 kts | 186° |
| 2026-05-07 22:39 | 29.84386 | -82.36129 | 30858 ft | 393 kts | 187° |
| 2026-05-07 22:40 | 29.81672 | -82.35978 | 30351 ft | 388 kts | 187° |
| 2026-05-07 22:40 | 29.78967 | -82.35828 | 29866 ft | 388 kts | 187° |
| 2026-05-07 22:40 | 29.76283 | -82.35679 | 29556 ft | 384 kts | 187° |
| 2026-05-07 22:40 | 29.73631 | -82.35532 | 29204 ft | 380 kts | 187° |
| 2026-05-07 22:41 | 29.70996 | -82.35387 | 28814 ft | 378 kts | 187° |
| 2026-05-07 22:41 | 29.68369 | -82.35241 | 28434 ft | 376 kts | 187° |
| 2026-05-07 22:41 | 29.65762 | -82.35097 | 28060 ft | 374 kts | 187° |
| 2026-05-07 22:41 | 29.63168 | -82.34954 | 27685 ft | 372 kts | 187° |
| 2026-05-07 22:42 | 29.60591 | -82.34811 | 27314 ft | 370 kts | 186° |
| 2026-05-07 22:42 | 29.58021 | -82.34669 | 26948 ft | 368 kts | 186° |
| 2026-05-07 22:42 | 29.55472 | -82.34528 | 26580 ft | 366 kts | 186° |
| 2026-05-07 22:42 | 29.52937 | -82.34388 | 26217 ft | 364 kts | 186° |
| 2026-05-07 22:43 | 29.50432 | -82.34250 | 25702 ft | 366 kts | 186° |
| 2026-05-07 22:43 | 29.47844 | -82.34107 | 25171 ft | 369 kts | 186° |
| 2026-05-07 22:43 | 29.45312 | -82.33968 | 24732 ft | 369 kts | 186° |
| 2026-05-07 22:43 | 29.42745 | -82.33826 | 24323 ft | 368 kts | 186° |
| 2026-05-07 22:44 | 29.40197 | -82.33686 | 23942 ft | 366 kts | 185° |
| 2026-05-07 22:44 | 29.37654 | -82.33479 | 23553 ft | 366 kts | 183° |
| 2026-05-07 22:44 | 29.35118 | -82.33185 | 23204 ft | 365 kts | 182° |
| 2026-05-07 22:44 | 29.32608 | -82.32851 | 22882 ft | 361 kts | 181° |
| 2026-05-07 22:45 | 29.30115 | -82.32521 | 22503 ft | 359 kts | 181° |
| 2026-05-07 22:45 | 29.27648 | -82.32206 | 22039 ft | 355 kts | 181° |
| 2026-05-07 22:45 | 29.25194 | -82.31902 | 21527 ft | 353 kts | 181° |
| 2026-05-07 22:45 | 29.22759 | -82.31605 | 21038 ft | 350 kts | 181° |
| 2026-05-07 22:46 | 29.20346 | -82.31313 | 20562 ft | 347 kts | 181° |
| 2026-05-07 22:46 | 29.17950 | -82.31025 | 20085 ft | 345 kts | 181° |
| 2026-05-07 22:46 | 29.15572 | -82.30741 | 19625 ft | 342 kts | 181° |
| 2026-05-07 22:46 | 29.13238 | -82.30462 | 19244 ft | 341 kts | 181° |
| 2026-05-07 22:47 | 29.10882 | -82.30182 | 18922 ft | 338 kts | 181° |
| 2026-05-07 22:47 | 29.08548 | -82.29904 | 18580 ft | 336 kts | 181° |
| 2026-05-07 22:47 | 29.06232 | -82.29628 | 18251 ft | 334 kts | 180° |
| 2026-05-07 22:47 | 29.03926 | -82.29351 | 17891 ft | 332 kts | 180° |
| 2026-05-07 22:48 | 29.01629 | -82.29075 | 17528 ft | 331 kts | 180° |
| 2026-05-07 22:48 | 28.99349 | -82.28804 | 17206 ft | 328 kts | 180° |
| 2026-05-07 22:48 | 28.97080 | -82.28534 | 16856 ft | 327 kts | 180° |
| 2026-05-07 22:48 | 28.94826 | -82.28267 | 16510 ft | 325 kts | 180° |
| 2026-05-07 22:49 | 28.92573 | -82.28000 | 16176 ft | 323 kts | 180° |
| 2026-05-07 22:49 | 28.90340 | -82.27736 | 15832 ft | 322 kts | 180° |
| 2026-05-07 22:49 | 28.88114 | -82.27472 | 15446 ft | 322 kts | 180° |
| 2026-05-07 22:49 | 28.85857 | -82.27205 | 14736 ft | 331 kts | 179° |
| 2026-05-07 22:50 | 28.83542 | -82.26932 | 14141 ft | 336 kts | 179° |
| 2026-05-07 22:50 | 28.81260 | -82.26662 | 13837 ft | 331 kts | 179° |
| 2026-05-07 22:50 | 28.78951 | -82.26389 | 13444 ft | 329 kts | 179° |
| 2026-05-07 22:50 | 28.76711 | -82.26124 | 13152 ft | 326 kts | 179° |
| 2026-05-07 22:51 | 28.74470 | -82.25860 | 13076 ft | 320 kts | 179° |
| 2026-05-07 22:51 | 28.72265 | -82.25681 | 12791 ft | 315 kts | 182° |
| 2026-05-07 22:51 | 28.70075 | -82.25657 | 12393 ft | 315 kts | 185° |
| 2026-05-07 22:51 | 28.67879 | -82.25680 | 11994 ft | 314 kts | 184° |
| 2026-05-07 22:52 | 28.65698 | -82.25673 | 11627 ft | 313 kts | 184° |
| 2026-05-07 22:52 | 28.63517 | -82.25644 | 11249 ft | 313 kts | 183° |
| 2026-05-07 22:52 | 28.61345 | -82.25601 | 10886 ft | 311 kts | 182° |
| 2026-05-07 22:52 | 28.59202 | -82.25558 | 10691 ft | 304 kts | 182° |
| 2026-05-07 22:53 | 28.57108 | -82.25518 | 10496 ft | 297 kts | 182° |
| 2026-05-07 22:53 | 28.55078 | -82.25479 | 10230 ft | 294 kts | 182° |
| 2026-05-07 22:53 | 28.53041 | -82.25440 | 9931 ft | 292 kts | 182° |
| 2026-05-07 22:53 | 28.51026 | -82.25407 | 9714 ft | 286 kts | 182° |
| 2026-05-07 22:54 | 28.49063 | -82.25383 | 9675 ft | 277 kts | 182° |
| 2026-05-07 22:54 | 28.47152 | -82.25359 | 9697 ft | 273 kts | 182° |
| 2026-05-07 22:54 | 28.45258 | -82.25335 | 9683 ft | 272 kts | 182° |
| 2026-05-07 22:54 | 28.43351 | -82.25310 | 9672 ft | 274 kts | 182° |
| 2026-05-07 22:55 | 28.41440 | -82.25285 | 9543 ft | 274 kts | 182° |
| 2026-05-07 22:55 | 28.39535 | -82.25260 | 9136 ft | 274 kts | 181° |
| 2026-05-07 22:55 | 28.37662 | -82.25329 | 8769 ft | 264 kts | 191° |
| 2026-05-07 22:55 | 28.35945 | -82.26000 | 8468 ft | 261 kts | 207° |
| 2026-05-07 22:56 | 28.34399 | -82.27034 | 8134 ft | 260 kts | 214° |
| 2026-05-07 22:56 | 28.32951 | -82.28250 | 7815 ft | 258 kts | 219° |
| 2026-05-07 22:56 | 28.31581 | -82.29546 | 7494 ft | 255 kts | 222° |
| 2026-05-07 22:56 | 28.30504 | -82.31099 | 7184 ft | 249 kts | 243° |
| 2026-05-07 22:57 | 28.29951 | -82.32929 | 6946 ft | 241 kts | 253° |
| 2026-05-07 22:57 | 28.29574 | -82.34775 | 6657 ft | 242 kts | 258° |
| 2026-05-07 22:57 | 28.29313 | -82.36667 | 6290 ft | 241 kts | 261° |
| 2026-05-07 22:57 | 28.29113 | -82.38515 | 6243 ft | 232 kts | 262° |
| 2026-05-07 22:58 | 28.28959 | -82.40284 | 6201 ft | 219 kts | 264° |
| 2026-05-07 22:58 | 28.28891 | -82.41979 | 6072 ft | 213 kts | 267° |
| 2026-05-07 22:58 | 28.28891 | -82.43662 | 5800 ft | 211 kts | 269° |
| 2026-05-07 22:58 | 28.28912 | -82.45284 | 5647 ft | 200 kts | 269° |
| 2026-05-07 22:59 | 28.28933 | -82.46801 | 5623 ft | 187 kts | 269° |
| 2026-05-07 22:59 | 28.28954 | -82.48278 | 5515 ft | 189 kts | 269° |
| 2026-05-07 22:59 | 28.28869 | -82.49753 | 5453 ft | 185 kts | 255° |
| 2026-05-07 22:59 | 28.28163 | -82.50905 | 5417 ft | 182 kts | 222° |
| 2026-05-07 23:00 | 28.27060 | -82.51612 | 5347 ft | 183 kts | 211° |
| 2026-05-07 23:00 | 28.25869 | -82.52134 | 5110 ft | 185 kts | 194° |
| 2026-05-07 23:00 | 28.24578 | -82.52184 | 4885 ft | 186 kts | 184° |
| 2026-05-07 23:00 | 28.23285 | -82.52125 | 4620 ft | 184 kts | 182° |
| 2026-05-07 23:01 | 28.22024 | -82.52098 | 4349 ft | 183 kts | 183° |
| 2026-05-07 23:01 | 28.20756 | -82.52104 | 4074 ft | 182 kts | 184° |
| 2026-05-07 23:01 | 28.19492 | -82.52128 | 3806 ft | 180 kts | 185° |
| 2026-05-07 23:01 | 28.18254 | -82.52161 | 3598 ft | 176 kts | 186° |
| 2026-05-07 23:02 | 28.17030 | -82.52199 | 3396 ft | 176 kts | 186° |
| 2026-05-07 23:02 | 28.15805 | -82.52238 | 3211 ft | 176 kts | 186° |
| 2026-05-07 23:02 | 28.14584 | -82.52279 | 3069 ft | 176 kts | 186° |
| 2026-05-07 23:02 | 28.13361 | -82.52321 | 2854 ft | 175 kts | 186° |
| 2026-05-07 23:03 | 28.12145 | -82.52362 | 2626 ft | 174 kts | 186° |
| 2026-05-07 23:03 | 28.10958 | -82.52403 | 2410 ft | 165 kts | 186° |
| 2026-05-07 23:03 | 28.09873 | -82.52440 | 2183 ft | 151 kts | 186° |
| 2026-05-07 23:03 | 28.08850 | -82.52475 | 2005 ft | 145 kts | 186° |
| 2026-05-07 23:04 | 28.07850 | -82.52509 | 1806 ft | 142 kts | 186° |
| 2026-05-07 23:04 | 28.06860 | -82.52543 | 1615 ft | 142 kts | 186° |
| 2026-05-07 23:04 | 28.05866 | -82.52577 | 1424 ft | 143 kts | 186° |
| 2026-05-07 23:04 | 28.04879 | -82.52611 | 1239 ft | 144 kts | 185° |
| 2026-05-07 23:05 | 28.03868 | -82.52645 | 1045 ft | 143 kts | 185° |
| 2026-05-07 23:05 | 28.02885 | -82.52675 | 855 ft | 143 kts | 185° |
| 2026-05-07 23:05 | 28.01882 | -82.52707 | 664 ft | 142 kts | 185° |
| 2026-05-07 23:05 | 28.00905 | -82.52745 | 475 ft | 142 kts | 185° |
| 2026-05-07 23:06 | 27.99911 | -82.52785 | 286 ft | 143 kts | 185° |
| 2026-05-07 23:06 | 27.98917 | -82.52809 | 102 ft | 142 kts | 184° |
| 2026-05-07 23:06 | 27.97960 | -82.52840 | 41 ft | 126 kts | 186° |
| 2026-05-07 23:06 | 27.97258 | -82.52871 | 40 ft | 74 kts | 185° |
| 2026-05-07 23:07 | 27.96952 | -82.52886 | 40 ft | 14 kts | 179° |
| 2026-05-07 23:07 | 27.96885 | -82.52841 | 40 ft | 9 kts | 110° |
| 2026-05-07 23:07 | 27.96881 | -82.52809 | 40 ft | 1 kts | 84° |
| 2026-05-07 23:07 | 27.96892 | -82.52778 | 40 ft | 11 kts | 46° |
| 2026-05-07 23:08 | 27.96979 | -82.52759 | 40 ft | 9 kts | 1° |
| 2026-05-07 23:08 | 27.97039 | -82.52756 | 40 ft | 8 kts | 2° |
| 2026-05-07 23:08 | 27.97093 | -82.52754 | 40 ft | 7 kts | 4° |
| 2026-05-07 23:08 | 27.97141 | -82.52751 | 40 ft | 7 kts | 2° |
| 2026-05-07 23:09 | 27.97187 | -82.52749 | 40 ft | 6 kts | 2° |
| 2026-05-07 23:09 | 27.97230 | -82.52747 | 40 ft | 6 kts | 2° |
| 2026-05-07 23:09 | 27.97272 | -82.52752 | 40 ft | 6 kts | 332° |
| 2026-05-07 23:09 | 27.97295 | -82.52786 | 40 ft | 6 kts | 283° |
| 2026-05-07 23:10 | 27.97300 | -82.52891 | 40 ft | 19 kts | 272° |
| 2026-05-07 23:10 | 27.97304 | -82.53011 | 40 ft | 14 kts | 272° |
| 2026-05-07 23:10 | 27.97307 | -82.53115 | 40 ft | 13 kts | 271° |
| 2026-05-07 23:10 | 27.97309 | -82.53213 | 40 ft | 12 kts | 271° |
| 2026-05-07 23:11 | 27.97311 | -82.53304 | 40 ft | 11 kts | 272° |
| 2026-05-07 23:11 | 27.97316 | -82.53390 | 40 ft | 10 kts | 274° |
| 2026-05-07 23:11 | 27.97321 | -82.53469 | 40 ft | 10 kts | 272° |
| 2026-05-07 23:11 | 27.97325 | -82.53544 | 40 ft | 9 kts | 278° |
| 2026-05-07 23:12 | 27.97340 | -82.53612 | 40 ft | 9 kts | 291° |
| 2026-05-07 23:12 | 27.97367 | -82.53673 | 40 ft | 8 kts | 300° |
| 2026-05-07 23:12 | 27.97398 | -82.53727 | 40 ft | 8 kts | 303° |
| 2026-05-07 23:12 | 27.97428 | -82.53776 | 40 ft | 7 kts | 311° |
| 2026-05-07 23:13 | 27.97474 | -82.53787 | 40 ft | 7 kts | 12° |
| 2026-05-07 23:13 | 27.97510 | -82.53760 | 40 ft | 6 kts | 72° |
| 2026-05-07 23:13 | 27.97521 | -82.53715 | 40 ft | 6 kts | 66° |
| 2026-05-07 23:13 | 27.97544 | -82.53680 | 40 ft | 5 kts | 43° |
| 2026-05-07 23:14 | 27.97553 | -82.53671 | 40 ft | 0 kts | 42° |